<?xml version='1.0' encoding='UTF-8'?><gpx version="1.1" creator="JPX - https://github.com/jenetics/jpx" xmlns="http://www.topografix.com/GPX/1/1"><trk><trkseg><trkpt lat="43.7785083" lon="11.20084"><ele>39.142857142857146</ele><time>2026-04-17T16:02:15.935Z</time></trkpt><trkpt lat="43.7785383" lon="11.2007483"><ele>39.285714285714285</ele><time>2026-04-17T16:02:19.935Z</time></trkpt><trkpt lat="43.7786367" lon="11.2007517"><ele>39.42857142857143</ele><time>2026-04-17T16:02:27.936Z</time></trkpt><trkpt lat="43.7787" lon="11.2007967"><ele>39.57142857142857</ele><time>2026-04-17T16:02:30.93Z</time></trkpt><trkpt lat="43.7787567" lon="11.2008467"><ele>39.714285714285715</ele><time>2026-04-17T16:02:32.929Z</time></trkpt><trkpt lat="43.7788183" lon="11.2008917"><ele>39.857142857142854</ele><time>2026-04-17T16:02:34.929Z</time></trkpt><trkpt lat="43.7788783" lon="11.2009367"><ele>40.0</ele><time>2026-04-17T16:02:36.929Z</time></trkpt><trkpt lat="43.7789567" lon="11.2009933"><ele>40.0</ele><time>2026-04-17T16:02:39.929Z</time></trkpt><trkpt lat="43.7790167" lon="11.2010383"><ele>40.0</ele><time>2026-04-17T16:02:41.929Z</time></trkpt><trkpt lat="43.7790783" lon="11.2010833"><ele>40.0</ele><time>2026-04-17T16:02:43.929Z</time></trkpt><trkpt lat="43.77915" lon="11.2011367"><ele>40.0</ele><time>2026-04-17T16:02:45.93Z</time></trkpt><trkpt lat="43.7792167" lon="11.201185"><ele>40.0</ele><time>2026-04-17T16:02:47.929Z</time></trkpt><trkpt lat="43.7792933" lon="11.20124"><ele>40.0</ele><time>2026-04-17T16:02:49.93Z</time></trkpt><trkpt lat="43.7793667" lon="11.2012867"><ele>40.14285714285714</ele><time>2026-04-17T16:02:51.929Z</time></trkpt><trkpt lat="43.7794283" lon="11.2013233"><ele>40.285714285714285</ele><time>2026-04-17T16:02:55.929Z</time></trkpt><trkpt lat="43.7794817" lon="11.2013783"><ele>40.42857142857143</ele><time>2026-04-17T16:03:00.929Z</time></trkpt><trkpt lat="43.7795467" lon="11.201435"><ele>40.57142857142857</ele><time>2026-04-17T16:03:02.929Z</time></trkpt><trkpt lat="43.7796117" lon="11.2015117"><ele>40.714285714285715</ele><time>2026-04-17T16:03:06.929Z</time></trkpt><trkpt lat="43.7796667" lon="11.201565"><ele>40.857142857142854</ele><time>2026-04-17T16:03:08.929Z</time></trkpt><trkpt lat="43.7797367" lon="11.2016183"><ele>41.0</ele><time>2026-04-17T16:03:10.929Z</time></trkpt><trkpt lat="43.779825" lon="11.2016883"><ele>41.0</ele><time>2026-04-17T16:03:13.929Z</time></trkpt><trkpt lat="43.7798833" lon="11.2016317"><ele>41.0</ele><time>2026-04-17T16:03:16.929Z</time></trkpt><trkpt lat="43.779935" lon="11.2015683"><ele>41.0</ele><time>2026-04-17T16:03:20.929Z</time></trkpt><trkpt lat="43.7801417" lon="11.2015817"><ele>41.0</ele><time>2026-04-17T16:03:30.928Z</time></trkpt><trkpt lat="43.78019" lon="11.2016483"><ele>41.0</ele><time>2026-04-17T16:03:33.928Z</time></trkpt><trkpt lat="43.78024" lon="11.2017033"><ele>40.71428571428571</ele><time>2026-04-17T16:03:35.928Z</time></trkpt><trkpt lat="43.7803067" lon="11.2017467"><ele>40.42857142857143</ele><time>2026-04-17T16:03:37.929Z</time></trkpt><trkpt lat="43.7803733" lon="11.201785"><ele>40.14285714285714</ele><time>2026-04-17T16:03:39.928Z</time></trkpt><trkpt lat="43.780435" lon="11.2018217"><ele>39.857142857142854</ele><time>2026-04-17T16:03:41.928Z</time></trkpt><trkpt lat="43.780495" lon="11.2018583"><ele>39.57142857142857</ele><time>2026-04-17T16:03:43.928Z</time></trkpt><trkpt lat="43.7805717" lon="11.2019133"><ele>39.285714285714285</ele><time>2026-04-17T16:03:46.928Z</time></trkpt><trkpt lat="43.7806433" lon="11.20195"><ele>39.0</ele><time>2026-04-17T16:03:48.928Z</time></trkpt><trkpt lat="43.780705" lon="11.2019817"><ele>39.0</ele><time>2026-04-17T16:03:50.929Z</time></trkpt><trkpt lat="43.78078" lon="11.20202"><ele>39.0</ele><time>2026-04-17T16:03:53.929Z</time></trkpt><trkpt lat="43.7808467" lon="11.2020533"><ele>39.0</ele><time>2026-04-17T16:03:55.929Z</time></trkpt><trkpt lat="43.7809117" lon="11.2020867"><ele>39.0</ele><time>2026-04-17T16:03:57.928Z</time></trkpt><trkpt lat="43.7809767" lon="11.20212"><ele>39.0</ele><time>2026-04-17T16:03:59.928Z</time></trkpt><trkpt lat="43.7810433" lon="11.2021533"><ele>39.0</ele><time>2026-04-17T16:04:01.929Z</time></trkpt><trkpt lat="43.7811117" lon="11.20219"><ele>39.0</ele><time>2026-04-17T16:04:03.928Z</time></trkpt><trkpt lat="43.7811867" lon="11.20223"><ele>39.0</ele><time>2026-04-17T16:04:05.928Z</time></trkpt><trkpt lat="43.7812517" lon="11.2022633"><ele>39.0</ele><time>2026-04-17T16:04:07.929Z</time></trkpt><trkpt lat="43.7813133" lon="11.20229"><ele>39.0</ele><time>2026-04-17T16:04:09.929Z</time></trkpt><trkpt lat="43.7813833" lon="11.202325"><ele>39.0</ele><time>2026-04-17T16:04:11.929Z</time></trkpt><trkpt lat="43.78147" lon="11.20237"><ele>39.0</ele><time>2026-04-17T16:04:14.928Z</time></trkpt><trkpt lat="43.7815567" lon="11.2024167"><ele>39.0</ele><time>2026-04-17T16:04:17.929Z</time></trkpt><trkpt lat="43.78162" lon="11.20245"><ele>39.0</ele><time>2026-04-17T16:04:19.928Z</time></trkpt><trkpt lat="43.78169" lon="11.2024867"><ele>39.0</ele><time>2026-04-17T16:04:21.928Z</time></trkpt><trkpt lat="43.7817567" lon="11.2025283"><ele>39.0</ele><time>2026-04-17T16:04:23.929Z</time></trkpt><trkpt lat="43.7818233" lon="11.2025683"><ele>39.0</ele><time>2026-04-17T16:04:25.928Z</time></trkpt><trkpt lat="43.7818917" lon="11.2026083"><ele>39.0</ele><time>2026-04-17T16:04:27.928Z</time></trkpt><trkpt lat="43.7819633" lon="11.20265"><ele>39.0</ele><time>2026-04-17T16:04:29.929Z</time></trkpt><trkpt lat="43.7820317" lon="11.20269"><ele>39.0</ele><time>2026-04-17T16:04:31.928Z</time></trkpt><trkpt lat="43.7821117" lon="11.202735"><ele>38.85714285714286</ele><time>2026-04-17T16:04:34.929Z</time></trkpt><trkpt lat="43.7821933" lon="11.2027833"><ele>38.71428571428571</ele><time>2026-04-17T16:04:37.929Z</time></trkpt><trkpt lat="43.7822183" lon="11.20287"><ele>38.57142857142857</ele><time>2026-04-17T16:04:39.929Z</time></trkpt><trkpt lat="43.782225" lon="11.2029583"><ele>38.42857142857143</ele><time>2026-04-17T16:04:42.928Z</time></trkpt><trkpt lat="43.782195" lon="11.203055"><ele>38.28571428571429</ele><time>2026-04-17T16:04:47.928Z</time></trkpt><trkpt lat="43.782175" lon="11.20315"><ele>38.14285714285714</ele><time>2026-04-17T16:04:50.928Z</time></trkpt><trkpt lat="43.7821583" lon="11.2032567"><ele>38.0</ele><time>2026-04-17T16:04:53.929Z</time></trkpt><trkpt lat="43.78215" lon="11.2033617"><ele>38.0</ele><time>2026-04-17T16:04:56.928Z</time></trkpt><trkpt lat="43.7821333" lon="11.2034667"><ele>38.0</ele><time>2026-04-17T16:04:59.929Z</time></trkpt><trkpt lat="43.78212" lon="11.20357"><ele>38.0</ele><time>2026-04-17T16:05:02.928Z</time></trkpt><trkpt lat="43.782115" lon="11.2036667"><ele>38.0</ele><time>2026-04-17T16:05:04.928Z</time></trkpt><trkpt lat="43.78213" lon="11.203755"><ele>38.0</ele><time>2026-04-17T16:05:06.928Z</time></trkpt><trkpt lat="43.7821317" lon="11.20385"><ele>38.0</ele><time>2026-04-17T16:05:08.928Z</time></trkpt><trkpt lat="43.7821317" lon="11.2039433"><ele>38.0</ele><time>2026-04-17T16:05:10.928Z</time></trkpt><trkpt lat="43.78212" lon="11.2040433"><ele>38.14285714285714</ele><time>2026-04-17T16:05:12.928Z</time></trkpt><trkpt lat="43.78211" lon="11.2041433"><ele>38.28571428571429</ele><time>2026-04-17T16:05:14.928Z</time></trkpt><trkpt lat="43.7820917" lon="11.20423"><ele>38.42857142857143</ele><time>2026-04-17T16:05:16.929Z</time></trkpt><trkpt lat="43.7820833" lon="11.2043233"><ele>38.57142857142857</ele><time>2026-04-17T16:05:18.928Z</time></trkpt><trkpt lat="43.7820867" lon="11.2044117"><ele>38.71428571428571</ele><time>2026-04-17T16:05:20.929Z</time></trkpt><trkpt lat="43.7820967" lon="11.2045017"><ele>38.85714285714286</ele><time>2026-04-17T16:05:22.928Z</time></trkpt><trkpt lat="43.78209" lon="11.2045933"><ele>39.0</ele><time>2026-04-17T16:05:24.928Z</time></trkpt><trkpt lat="43.7820733" lon="11.2046817"><ele>39.0</ele><time>2026-04-17T16:05:26.928Z</time></trkpt><trkpt lat="43.7820617" lon="11.2047833"><ele>39.0</ele><time>2026-04-17T16:05:29.928Z</time></trkpt><trkpt lat="43.7821067" lon="11.2047"><ele>39.0</ele><time>2026-04-17T16:05:35.928Z</time></trkpt><trkpt lat="43.7821167" lon="11.2045817"><ele>39.0</ele><time>2026-04-17T16:05:37.929Z</time></trkpt><trkpt lat="43.78213" lon="11.2044467"><ele>39.0</ele><time>2026-04-17T16:05:39.928Z</time></trkpt><trkpt lat="43.78215" lon="11.204305"><ele>39.0</ele><time>2026-04-17T16:05:41.928Z</time></trkpt><trkpt lat="43.7821717" lon="11.20418"><ele>39.0</ele><time>2026-04-17T16:05:43.929Z</time></trkpt><trkpt lat="43.7822033" lon="11.20407"><ele>39.0</ele><time>2026-04-17T16:05:45.929Z</time></trkpt><trkpt lat="43.782265" lon="11.2039817"><ele>39.0</ele><time>2026-04-17T16:05:47.928Z</time></trkpt><trkpt lat="43.782365" lon="11.2039667"><ele>39.0</ele><time>2026-04-17T16:05:49.928Z</time></trkpt><trkpt lat="43.7824483" lon="11.2039783"><ele>39.0</ele><time>2026-04-17T16:05:51.928Z</time></trkpt><trkpt lat="43.782515" lon="11.204"><ele>39.0</ele><time>2026-04-17T16:05:53.929Z</time></trkpt><trkpt lat="43.78258" lon="11.204025"><ele>39.0</ele><time>2026-04-17T16:05:55.928Z</time></trkpt><trkpt lat="43.782665" lon="11.20406"><ele>39.0</ele><time>2026-04-17T16:05:57.929Z</time></trkpt><trkpt lat="43.7827283" lon="11.2040833"><ele>39.0</ele><time>2026-04-17T16:05:59.928Z</time></trkpt><trkpt lat="43.7828117" lon="11.2041083"><ele>39.0</ele><time>2026-04-17T16:06:02.928Z</time></trkpt><trkpt lat="43.7829" lon="11.2041383"><ele>39.0</ele><time>2026-04-17T16:06:05.928Z</time></trkpt><trkpt lat="43.78297" lon="11.204165"><ele>39.0</ele><time>2026-04-17T16:06:07.928Z</time></trkpt><trkpt lat="43.78304" lon="11.204195"><ele>39.142857142857146</ele><time>2026-04-17T16:06:09.928Z</time></trkpt><trkpt lat="43.783105" lon="11.2042217"><ele>39.285714285714285</ele><time>2026-04-17T16:06:11.928Z</time></trkpt><trkpt lat="43.7831717" lon="11.204245"><ele>39.42857142857143</ele><time>2026-04-17T16:06:13.928Z</time></trkpt><trkpt lat="43.78325" lon="11.2042683"><ele>39.57142857142857</ele><time>2026-04-17T16:06:16.928Z</time></trkpt><trkpt lat="43.7833117" lon="11.2042883"><ele>39.714285714285715</ele><time>2026-04-17T16:06:18.928Z</time></trkpt><trkpt lat="43.7833883" lon="11.2043133"><ele>39.857142857142854</ele><time>2026-04-17T16:06:20.928Z</time></trkpt><trkpt lat="43.7834633" lon="11.2043417"><ele>40.0</ele><time>2026-04-17T16:06:22.928Z</time></trkpt><trkpt lat="43.78353" lon="11.2043667"><ele>40.0</ele><time>2026-04-17T16:06:24.928Z</time></trkpt><trkpt lat="43.7836033" lon="11.2043917"><ele>40.0</ele><time>2026-04-17T16:06:26.928Z</time></trkpt><trkpt lat="43.7836917" lon="11.204425"><ele>40.0</ele><time>2026-04-17T16:06:29.928Z</time></trkpt><trkpt lat="43.7837817" lon="11.20446"><ele>40.0</ele><time>2026-04-17T16:06:32.929Z</time></trkpt><trkpt lat="43.7838633" lon="11.20449"><ele>40.0</ele><time>2026-04-17T16:06:35.928Z</time></trkpt><trkpt lat="43.7839317" lon="11.2045017"><ele>40.0</ele><time>2026-04-17T16:06:38.929Z</time></trkpt><trkpt lat="43.7840167" lon="11.2045267"><ele>40.0</ele><time>2026-04-17T16:06:41.928Z</time></trkpt><trkpt lat="43.78408" lon="11.2045467"><ele>40.0</ele><time>2026-04-17T16:06:43.929Z</time></trkpt><trkpt lat="43.7841467" lon="11.2045683"><ele>40.0</ele><time>2026-04-17T16:06:45.928Z</time></trkpt><trkpt lat="43.78423" lon="11.2045917"><ele>40.0</ele><time>2026-04-17T16:06:48.929Z</time></trkpt><trkpt lat="43.7843017" lon="11.2046083"><ele>40.0</ele><time>2026-04-17T16:06:51.928Z</time></trkpt><trkpt lat="43.784375" lon="11.2046267"><ele>40.0</ele><time>2026-04-17T16:06:54.928Z</time></trkpt><trkpt lat="43.78444" lon="11.2046483"><ele>40.0</ele><time>2026-04-17T16:06:56.929Z</time></trkpt><trkpt lat="43.7845" lon="11.2046767"><ele>40.0</ele><time>2026-04-17T16:06:58.928Z</time></trkpt><trkpt lat="43.78457" lon="11.204705"><ele>40.0</ele><time>2026-04-17T16:07:00.929Z</time></trkpt><trkpt lat="43.7846533" lon="11.2047383"><ele>40.0</ele><time>2026-04-17T16:07:03.929Z</time></trkpt><trkpt lat="43.7847383" lon="11.2047767"><ele>40.0</ele><time>2026-04-17T16:07:06.928Z</time></trkpt><trkpt lat="43.7848017" lon="11.20481"><ele>40.0</ele><time>2026-04-17T16:07:08.928Z</time></trkpt><trkpt lat="43.784865" lon="11.2048433"><ele>40.0</ele><time>2026-04-17T16:07:10.928Z</time></trkpt><trkpt lat="43.7849367" lon="11.2048783"><ele>39.833333333333336</ele><time>2026-04-17T16:07:13.928Z</time></trkpt><trkpt lat="43.7850017" lon="11.2049333"><ele>39.66666666666667</ele><time>2026-04-17T16:07:16.928Z</time></trkpt><trkpt lat="43.7850283" lon="11.20504"><ele>39.5</ele><time>2026-04-17T16:07:20.929Z</time></trkpt><trkpt lat="43.7850033" lon="11.2051483"><ele>39.333333333333336</ele><time>2026-04-17T16:07:23.928Z</time></trkpt><trkpt lat="43.7849783" lon="11.20523"><ele>39.166666666666664</ele><time>2026-04-17T16:07:26.929Z</time></trkpt><trkpt lat="43.7849483" lon="11.20531"><ele>39.0</ele><time>2026-04-17T16:07:29.928Z</time></trkpt><trkpt lat="43.7849133" lon="11.2054133"><ele>39.0</ele><time>2026-04-17T16:07:32.928Z</time></trkpt><trkpt lat="43.7848783" lon="11.2055067"><ele>39.0</ele><time>2026-04-17T16:07:35.929Z</time></trkpt><trkpt lat="43.784825" lon="11.2056083"><ele>39.0</ele><time>2026-04-17T16:07:38.928Z</time></trkpt><trkpt lat="43.784775" lon="11.2057"><ele>39.0</ele><time>2026-04-17T16:07:41.928Z</time></trkpt><trkpt lat="43.7847183" lon="11.2058067"><ele>39.0</ele><time>2026-04-17T16:07:44.928Z</time></trkpt><trkpt lat="43.7846733" lon="11.2058917"><ele>39.0</ele><time>2026-04-17T16:07:46.928Z</time></trkpt><trkpt lat="43.7846383" lon="11.2059817"><ele>39.166666666666664</ele><time>2026-04-17T16:07:48.927Z</time></trkpt><trkpt lat="43.784595" lon="11.206085"><ele>39.333333333333336</ele><time>2026-04-17T16:07:50.927Z</time></trkpt><trkpt lat="43.7845667" lon="11.206165"><ele>39.5</ele><time>2026-04-17T16:07:52.927Z</time></trkpt><trkpt lat="43.784525" lon="11.20625"><ele>39.66666666666667</ele><time>2026-04-17T16:07:54.927Z</time></trkpt><trkpt lat="43.7844883" lon="11.20634"><ele>39.833333333333336</ele><time>2026-04-17T16:07:56.927Z</time></trkpt><trkpt lat="43.7844417" lon="11.20645"><ele>40.0</ele><time>2026-04-17T16:07:59.927Z</time></trkpt><trkpt lat="43.7843783" lon="11.206565"><ele>40.0</ele><time>2026-04-17T16:08:02.927Z</time></trkpt><trkpt lat="43.784325" lon="11.2066533"><ele>40.0</ele><time>2026-04-17T16:08:04.927Z</time></trkpt><trkpt lat="43.7842667" lon="11.206765"><ele>40.0</ele><time>2026-04-17T16:08:06.927Z</time></trkpt><trkpt lat="43.7842117" lon="11.206865"><ele>40.0</ele><time>2026-04-17T16:08:08.927Z</time></trkpt><trkpt lat="43.78416" lon="11.2069767"><ele>40.0</ele><time>2026-04-17T16:08:10.927Z</time></trkpt><trkpt lat="43.78411" lon="11.2070717"><ele>40.0</ele><time>2026-04-17T16:08:12.927Z</time></trkpt><trkpt lat="43.7840633" lon="11.2071583"><ele>40.0</ele><time>2026-04-17T16:08:14.927Z</time></trkpt><trkpt lat="43.78402" lon="11.20725"><ele>40.0</ele><time>2026-04-17T16:08:16.928Z</time></trkpt><trkpt lat="43.7839733" lon="11.207345"><ele>40.0</ele><time>2026-04-17T16:08:18.928Z</time></trkpt><trkpt lat="43.783935" lon="11.2074383"><ele>40.0</ele><time>2026-04-17T16:08:20.927Z</time></trkpt><trkpt lat="43.7838983" lon="11.207525"><ele>40.0</ele><time>2026-04-17T16:08:22.927Z</time></trkpt><trkpt lat="43.7838567" lon="11.2076033"><ele>39.66666666666667</ele><time>2026-04-17T16:08:24.927Z</time></trkpt><trkpt lat="43.783815" lon="11.207695"><ele>39.333333333333336</ele><time>2026-04-17T16:08:27.928Z</time></trkpt><trkpt lat="43.7837667" lon="11.2077833"><ele>39.0</ele><time>2026-04-17T16:08:30.927Z</time></trkpt><trkpt lat="43.7837233" lon="11.2078467"><ele>38.666666666666664</ele><time>2026-04-17T16:08:33.928Z</time></trkpt><trkpt lat="43.7837133" lon="11.2079483"><ele>38.33333333333333</ele><time>2026-04-17T16:08:36.927Z</time></trkpt><trkpt lat="43.7836983" lon="11.2080733"><ele>38.0</ele><time>2026-04-17T16:08:40.928Z</time></trkpt><trkpt lat="43.7836767" lon="11.20819"><ele>37.57142857142857</ele><time>2026-04-17T16:08:43.927Z</time></trkpt><trkpt lat="43.7836383" lon="11.2082767"><ele>37.142857142857146</ele><time>2026-04-17T16:08:45.927Z</time></trkpt><trkpt lat="43.783595" lon="11.2083633"><ele>36.714285714285715</ele><time>2026-04-17T16:08:47.927Z</time></trkpt><trkpt lat="43.7835583" lon="11.2084617"><ele>36.285714285714285</ele><time>2026-04-17T16:08:49.927Z</time></trkpt><trkpt lat="43.7835217" lon="11.208555"><ele>35.85714285714286</ele><time>2026-04-17T16:08:51.927Z</time></trkpt><trkpt lat="43.7834783" lon="11.2086367"><ele>35.42857142857143</ele><time>2026-04-17T16:08:53.927Z</time></trkpt><trkpt lat="43.7834433" lon="11.2087117"><ele>35.0</ele><time>2026-04-17T16:08:55.927Z</time></trkpt><trkpt lat="43.7834167" lon="11.2087967"><ele>35.666666666666664</ele><time>2026-04-17T16:08:57.928Z</time></trkpt><trkpt lat="43.783395" lon="11.2089"><ele>36.33333333333333</ele><time>2026-04-17T16:08:59.927Z</time></trkpt><trkpt lat="43.7833767" lon="11.209"><ele>37.0</ele><time>2026-04-17T16:09:01.928Z</time></trkpt><trkpt lat="43.7833583" lon="11.2091017"><ele>37.666666666666664</ele><time>2026-04-17T16:09:03.928Z</time></trkpt><trkpt lat="43.7833267" lon="11.2092117"><ele>38.333333333333336</ele><time>2026-04-17T16:09:05.927Z</time></trkpt><trkpt lat="43.783295" lon="11.2093067"><ele>39.0</ele><time>2026-04-17T16:09:07.928Z</time></trkpt><trkpt lat="43.7832617" lon="11.209385"><ele>39.0</ele><time>2026-04-17T16:09:09.927Z</time></trkpt><trkpt lat="43.7832133" lon="11.2094883"><ele>39.0</ele><time>2026-04-17T16:09:12.927Z</time></trkpt><trkpt lat="43.7831683" lon="11.2095733"><ele>39.0</ele><time>2026-04-17T16:09:15.927Z</time></trkpt><trkpt lat="43.7831067" lon="11.209675"><ele>39.0</ele><time>2026-04-17T16:09:18.928Z</time></trkpt><trkpt lat="43.7830633" lon="11.2097483"><ele>39.0</ele><time>2026-04-17T16:09:20.927Z</time></trkpt><trkpt lat="43.7830117" lon="11.209825"><ele>39.0</ele><time>2026-04-17T16:09:22.927Z</time></trkpt><trkpt lat="43.7829717" lon="11.209905"><ele>38.42857142857143</ele><time>2026-04-17T16:09:24.927Z</time></trkpt><trkpt lat="43.7829367" lon="11.2099817"><ele>37.857142857142854</ele><time>2026-04-17T16:09:26.927Z</time></trkpt><trkpt lat="43.7829083" lon="11.2100617"><ele>37.285714285714285</ele><time>2026-04-17T16:09:28.928Z</time></trkpt><trkpt lat="43.7828717" lon="11.2101733"><ele>36.714285714285715</ele><time>2026-04-17T16:09:31.927Z</time></trkpt><trkpt lat="43.782835" lon="11.210255"><ele>36.14285714285714</ele><time>2026-04-17T16:09:33.927Z</time></trkpt><trkpt lat="43.7827917" lon="11.2103583"><ele>35.57142857142857</ele><time>2026-04-17T16:09:36.927Z</time></trkpt><trkpt lat="43.7827567" lon="11.2104333"><ele>35.0</ele><time>2026-04-17T16:09:38.927Z</time></trkpt><trkpt lat="43.78272" lon="11.2105067"><ele>35.0</ele><time>2026-04-17T16:09:40.927Z</time></trkpt><trkpt lat="43.7826833" lon="11.2105817"><ele>35.0</ele><time>2026-04-17T16:09:42.927Z</time></trkpt><trkpt lat="43.7826333" lon="11.21069"><ele>35.0</ele><time>2026-04-17T16:09:45.927Z</time></trkpt><trkpt lat="43.7825867" lon="11.2107683"><ele>35.0</ele><time>2026-04-17T16:09:48.927Z</time></trkpt><trkpt lat="43.7825383" lon="11.2108617"><ele>35.0</ele><time>2026-04-17T16:09:51.927Z</time></trkpt><trkpt lat="43.7825" lon="11.210935"><ele>35.0</ele><time>2026-04-17T16:09:53.928Z</time></trkpt><trkpt lat="43.7824667" lon="11.211015"><ele>35.0</ele><time>2026-04-17T16:09:55.928Z</time></trkpt><trkpt lat="43.78244" lon="11.2111017"><ele>35.33333333333333</ele><time>2026-04-17T16:09:57.927Z</time></trkpt><trkpt lat="43.7823983" lon="11.2112183"><ele>35.666666666666664</ele><time>2026-04-17T16:10:00.927Z</time></trkpt><trkpt lat="43.782355" lon="11.2113133"><ele>36.0</ele><time>2026-04-17T16:10:02.927Z</time></trkpt><trkpt lat="43.7823217" lon="11.2114433"><ele>36.333333333333336</ele><time>2026-04-17T16:10:05.927Z</time></trkpt><trkpt lat="43.782295" lon="11.2115267"><ele>36.66666666666667</ele><time>2026-04-17T16:10:07.928Z</time></trkpt><trkpt lat="43.7822517" lon="11.2116283"><ele>37.0</ele><time>2026-04-17T16:10:10.927Z</time></trkpt><trkpt lat="43.78221" lon="11.2117133"><ele>36.42857142857143</ele><time>2026-04-17T16:10:12.927Z</time></trkpt><trkpt lat="43.78218" lon="11.2117933"><ele>35.857142857142854</ele><time>2026-04-17T16:10:14.928Z</time></trkpt><trkpt lat="43.7821317" lon="11.211875"><ele>35.285714285714285</ele><time>2026-04-17T16:10:16.927Z</time></trkpt><trkpt lat="43.7820883" lon="11.2119583"><ele>34.714285714285715</ele><time>2026-04-17T16:10:18.927Z</time></trkpt><trkpt lat="43.78205" lon="11.21203"><ele>34.142857142857146</ele><time>2026-04-17T16:10:20.927Z</time></trkpt><trkpt lat="43.7820117" lon="11.2121083"><ele>33.57142857142857</ele><time>2026-04-17T16:10:22.928Z</time></trkpt><trkpt lat="43.7819683" lon="11.2121867"><ele>33.0</ele><time>2026-04-17T16:10:24.927Z</time></trkpt><trkpt lat="43.781935" lon="11.2122617"><ele>32.833333333333336</ele><time>2026-04-17T16:10:26.927Z</time></trkpt><trkpt lat="43.7818983" lon="11.2123817"><ele>32.666666666666664</ele><time>2026-04-17T16:10:29.927Z</time></trkpt><trkpt lat="43.78185" lon="11.2124767"><ele>32.5</ele><time>2026-04-17T16:10:32.927Z</time></trkpt><trkpt lat="43.7818133" lon="11.212565"><ele>32.33333333333333</ele><time>2026-04-17T16:10:35.927Z</time></trkpt><trkpt lat="43.78178" lon="11.21266"><ele>32.166666666666664</ele><time>2026-04-17T16:10:39.928Z</time></trkpt><trkpt lat="43.781745" lon="11.2127367"><ele>32.0</ele><time>2026-04-17T16:10:43.927Z</time></trkpt><trkpt lat="43.78168" lon="11.2128"><ele>32.57142857142857</ele><time>2026-04-17T16:10:47.927Z</time></trkpt><trkpt lat="43.7816317" lon="11.2128883"><ele>33.14285714285714</ele><time>2026-04-17T16:10:51.927Z</time></trkpt><trkpt lat="43.781595" lon="11.2129667"><ele>33.714285714285715</ele><time>2026-04-17T16:10:54.927Z</time></trkpt><trkpt lat="43.7815483" lon="11.2130467"><ele>34.285714285714285</ele><time>2026-04-17T16:10:57.928Z</time></trkpt><trkpt lat="43.78151" lon="11.21313"><ele>34.85714285714286</ele><time>2026-04-17T16:11:00.927Z</time></trkpt><trkpt lat="43.781475" lon="11.2132067"><ele>35.42857142857143</ele><time>2026-04-17T16:11:03.927Z</time></trkpt><trkpt lat="43.7814367" lon="11.2132883"><ele>36.0</ele><time>2026-04-17T16:11:06.927Z</time></trkpt><trkpt lat="43.78139" lon="11.213385"><ele>36.0</ele><time>2026-04-17T16:11:09.927Z</time></trkpt><trkpt lat="43.7813533" lon="11.2134733"><ele>36.0</ele><time>2026-04-17T16:11:12.928Z</time></trkpt><trkpt lat="43.7813117" lon="11.21356"><ele>36.0</ele><time>2026-04-17T16:11:15.927Z</time></trkpt><trkpt lat="43.7812667" lon="11.2136533"><ele>36.0</ele><time>2026-04-17T16:11:18.927Z</time></trkpt><trkpt lat="43.7812317" lon="11.21374"><ele>36.0</ele><time>2026-04-17T16:11:21.927Z</time></trkpt><trkpt lat="43.7811783" lon="11.213835"><ele>36.0</ele><time>2026-04-17T16:11:24.927Z</time></trkpt><trkpt lat="43.7811183" lon="11.2139067"><ele>35.333333333333336</ele><time>2026-04-17T16:11:27.927Z</time></trkpt><trkpt lat="43.7810717" lon="11.214005"><ele>34.666666666666664</ele><time>2026-04-17T16:11:30.927Z</time></trkpt><trkpt lat="43.7810217" lon="11.2141083"><ele>34.0</ele><time>2026-04-17T16:11:33.926Z</time></trkpt><trkpt lat="43.7809717" lon="11.2142133"><ele>33.33333333333333</ele><time>2026-04-17T16:11:36.926Z</time></trkpt><trkpt lat="43.780925" lon="11.2142867"><ele>32.666666666666664</ele><time>2026-04-17T16:11:38.926Z</time></trkpt><trkpt lat="43.7808783" lon="11.2143633"><ele>32.0</ele><time>2026-04-17T16:11:40.927Z</time></trkpt><trkpt lat="43.7808333" lon="11.214445"><ele>33.166666666666664</ele><time>2026-04-17T16:11:42.927Z</time></trkpt><trkpt lat="43.78079" lon="11.21453"><ele>34.33333333333333</ele><time>2026-04-17T16:11:44.926Z</time></trkpt><trkpt lat="43.7807533" lon="11.21461"><ele>35.5</ele><time>2026-04-17T16:11:46.927Z</time></trkpt><trkpt lat="43.7807217" lon="11.21469"><ele>36.666666666666664</ele><time>2026-04-17T16:11:48.926Z</time></trkpt><trkpt lat="43.7806833" lon="11.2148"><ele>37.833333333333336</ele><time>2026-04-17T16:11:51.926Z</time></trkpt><trkpt lat="43.78063" lon="11.2149033"><ele>39.0</ele><time>2026-04-17T16:11:54.926Z</time></trkpt><trkpt lat="43.78059" lon="11.2150017"><ele>39.0</ele><time>2026-04-17T16:11:57.927Z</time></trkpt><trkpt lat="43.7805633" lon="11.2150883"><ele>39.0</ele><time>2026-04-17T16:11:59.926Z</time></trkpt><trkpt lat="43.7805217" lon="11.2151833"><ele>39.0</ele><time>2026-04-17T16:12:02.926Z</time></trkpt><trkpt lat="43.7804767" lon="11.2152783"><ele>39.0</ele><time>2026-04-17T16:12:05.926Z</time></trkpt><trkpt lat="43.78043" lon="11.2153783"><ele>39.0</ele><time>2026-04-17T16:12:08.926Z</time></trkpt><trkpt lat="43.7803817" lon="11.21549"><ele>39.0</ele><time>2026-04-17T16:12:11.926Z</time></trkpt><trkpt lat="43.7803433" lon="11.2155667"><ele>38.666666666666664</ele><time>2026-04-17T16:12:13.927Z</time></trkpt><trkpt lat="43.7803" lon="11.2156717"><ele>38.333333333333336</ele><time>2026-04-17T16:12:16.926Z</time></trkpt><trkpt lat="43.7802633" lon="11.215755"><ele>38.0</ele><time>2026-04-17T16:12:18.926Z</time></trkpt><trkpt lat="43.7802267" lon="11.215855"><ele>37.66666666666667</ele><time>2026-04-17T16:12:21.926Z</time></trkpt><trkpt lat="43.780185" lon="11.2159483"><ele>37.333333333333336</ele><time>2026-04-17T16:12:24.926Z</time></trkpt><trkpt lat="43.7801483" lon="11.2160317"><ele>37.0</ele><time>2026-04-17T16:12:27.926Z</time></trkpt><trkpt lat="43.780105" lon="11.216135"><ele>37.66666666666667</ele><time>2026-04-17T16:12:30.927Z</time></trkpt><trkpt lat="43.7800583" lon="11.2162467"><ele>38.333333333333336</ele><time>2026-04-17T16:12:33.926Z</time></trkpt><trkpt lat="43.7800333" lon="11.2163333"><ele>39.0</ele><time>2026-04-17T16:12:35.926Z</time></trkpt><trkpt lat="43.7800033" lon="11.2164217"><ele>39.666666666666664</ele><time>2026-04-17T16:12:37.926Z</time></trkpt><trkpt lat="43.779965" lon="11.2165333"><ele>40.33333333333333</ele><time>2026-04-17T16:12:40.926Z</time></trkpt><trkpt lat="43.77993" lon="11.216615"><ele>41.0</ele><time>2026-04-17T16:12:42.926Z</time></trkpt><trkpt lat="43.7798967" lon="11.216705"><ele>41.0</ele><time>2026-04-17T16:12:44.926Z</time></trkpt><trkpt lat="43.7798567" lon="11.21682"><ele>41.0</ele><time>2026-04-17T16:12:47.927Z</time></trkpt><trkpt lat="43.7798583" lon="11.216945"><ele>41.0</ele><time>2026-04-17T16:12:50.927Z</time></trkpt><trkpt lat="43.7798767" lon="11.2170467"><ele>41.0</ele><time>2026-04-17T16:12:52.926Z</time></trkpt><trkpt lat="43.7798633" lon="11.217155"><ele>41.0</ele><time>2026-04-17T16:12:54.926Z</time></trkpt><trkpt lat="43.7798267" lon="11.2172417"><ele>41.0</ele><time>2026-04-17T16:12:56.926Z</time></trkpt><trkpt lat="43.779785" lon="11.2173233"><ele>40.857142857142854</ele><time>2026-04-17T16:12:58.926Z</time></trkpt><trkpt lat="43.77975" lon="11.21741"><ele>40.714285714285715</ele><time>2026-04-17T16:13:00.926Z</time></trkpt><trkpt lat="43.7797133" lon="11.2174867"><ele>40.57142857142857</ele><time>2026-04-17T16:13:02.926Z</time></trkpt><trkpt lat="43.7796783" lon="11.2175717"><ele>40.42857142857143</ele><time>2026-04-17T16:13:04.926Z</time></trkpt><trkpt lat="43.77963" lon="11.217645"><ele>40.285714285714285</ele><time>2026-04-17T16:13:06.926Z</time></trkpt><trkpt lat="43.7795683" lon="11.217735"><ele>40.14285714285714</ele><time>2026-04-17T16:13:08.926Z</time></trkpt><trkpt lat="43.7795217" lon="11.2178133"><ele>40.0</ele><time>2026-04-17T16:13:10.926Z</time></trkpt><trkpt lat="43.7794883" lon="11.21791"><ele>40.0</ele><time>2026-04-17T16:13:13.926Z</time></trkpt><trkpt lat="43.7794683" lon="11.218"><ele>40.0</ele><time>2026-04-17T16:13:15.927Z</time></trkpt><trkpt lat="43.7794433" lon="11.2180933"><ele>40.0</ele><time>2026-04-17T16:13:17.926Z</time></trkpt><trkpt lat="43.7794067" lon="11.2181683"><ele>40.0</ele><time>2026-04-17T16:13:19.926Z</time></trkpt><trkpt lat="43.77937" lon="11.2182567"><ele>40.0</ele><time>2026-04-17T16:13:22.926Z</time></trkpt><trkpt lat="43.77935" lon="11.2183483"><ele>40.0</ele><time>2026-04-17T16:13:24.926Z</time></trkpt><trkpt lat="43.779335" lon="11.2184333"><ele>40.0</ele><time>2026-04-17T16:13:27.927Z</time></trkpt><trkpt lat="43.7793017" lon="11.21852"><ele>40.14285714285714</ele><time>2026-04-17T16:13:30.926Z</time></trkpt><trkpt lat="43.7792517" lon="11.2185917"><ele>40.285714285714285</ele><time>2026-04-17T16:13:33.927Z</time></trkpt><trkpt lat="43.7791967" lon="11.218645"><ele>40.42857142857143</ele><time>2026-04-17T16:13:35.927Z</time></trkpt><trkpt lat="43.77915" lon="11.2187217"><ele>40.57142857142857</ele><time>2026-04-17T16:13:38.926Z</time></trkpt><trkpt lat="43.779115" lon="11.21881"><ele>40.714285714285715</ele><time>2026-04-17T16:13:41.927Z</time></trkpt><trkpt lat="43.7790783" lon="11.218895"><ele>40.857142857142854</ele><time>2026-04-17T16:13:43.926Z</time></trkpt><trkpt lat="43.779045" lon="11.2190017"><ele>41.0</ele><time>2026-04-17T16:13:46.926Z</time></trkpt><trkpt lat="43.7790133" lon="11.2191133"><ele>41.0</ele><time>2026-04-17T16:13:49.926Z</time></trkpt><trkpt lat="43.77897" lon="11.2192083"><ele>41.0</ele><time>2026-04-17T16:13:51.926Z</time></trkpt><trkpt lat="43.7789383" lon="11.2192983"><ele>41.0</ele><time>2026-04-17T16:13:53.927Z</time></trkpt><trkpt lat="43.778895" lon="11.2194"><ele>41.0</ele><time>2026-04-17T16:13:56.927Z</time></trkpt><trkpt lat="43.778865" lon="11.2195017"><ele>41.0</ele><time>2026-04-17T16:14:00.927Z</time></trkpt><trkpt lat="43.7788383" lon="11.2195883"><ele>41.0</ele><time>2026-04-17T16:14:03.926Z</time></trkpt><trkpt lat="43.7788067" lon="11.2196767"><ele>41.0</ele><time>2026-04-17T16:14:06.926Z</time></trkpt><trkpt lat="43.7787717" lon="11.2197633"><ele>41.0</ele><time>2026-04-17T16:14:10.926Z</time></trkpt><trkpt lat="43.77876" lon="11.21985"><ele>41.0</ele><time>2026-04-17T16:14:13.926Z</time></trkpt><trkpt lat="43.7787567" lon="11.2199567"><ele>41.0</ele><time>2026-04-17T16:14:17.926Z</time></trkpt><trkpt lat="43.778735" lon="11.2200533"><ele>41.0</ele><time>2026-04-17T16:14:20.926Z</time></trkpt><trkpt lat="43.778725" lon="11.2201483"><ele>41.0</ele><time>2026-04-17T16:14:24.926Z</time></trkpt><trkpt lat="43.77868" lon="11.220265"><ele>41.166666666666664</ele><time>2026-04-17T16:14:26.926Z</time></trkpt><trkpt lat="43.7786417" lon="11.2203633"><ele>41.33333333333333</ele><time>2026-04-17T16:14:28.927Z</time></trkpt><trkpt lat="43.7786" lon="11.2204733"><ele>41.5</ele><time>2026-04-17T16:14:30.927Z</time></trkpt><trkpt lat="43.7785633" lon="11.22057"><ele>41.666666666666664</ele><time>2026-04-17T16:14:32.926Z</time></trkpt><trkpt lat="43.7785117" lon="11.2206717"><ele>41.833333333333336</ele><time>2026-04-17T16:14:34.926Z</time></trkpt><trkpt lat="43.7784683" lon="11.2207817"><ele>42.0</ele><time>2026-04-17T16:14:36.926Z</time></trkpt><trkpt lat="43.7784033" lon="11.2208983"><ele>42.666666666666664</ele><time>2026-04-17T16:14:38.926Z</time></trkpt><trkpt lat="43.7783517" lon="11.2210133"><ele>43.333333333333336</ele><time>2026-04-17T16:14:40.927Z</time></trkpt><trkpt lat="43.7783083" lon="11.2210833"><ele>44.0</ele><time>2026-04-17T16:14:42.926Z</time></trkpt><trkpt lat="43.778265" lon="11.2211783"><ele>44.66666666666667</ele><time>2026-04-17T16:14:44.926Z</time></trkpt><trkpt lat="43.77823" lon="11.2212583"><ele>45.333333333333336</ele><time>2026-04-17T16:14:46.926Z</time></trkpt><trkpt lat="43.7781833" lon="11.2213617"><ele>46.0</ele><time>2026-04-17T16:14:48.926Z</time></trkpt><trkpt lat="43.7781667" lon="11.22146"><ele>46.0</ele><time>2026-04-17T16:14:50.927Z</time></trkpt><trkpt lat="43.778165" lon="11.2215667"><ele>46.0</ele><time>2026-04-17T16:14:52.927Z</time></trkpt><trkpt lat="43.77815" lon="11.22167"><ele>46.0</ele><time>2026-04-17T16:14:54.927Z</time></trkpt><trkpt lat="43.7781117" lon="11.2217683"><ele>46.0</ele><time>2026-04-17T16:14:56.926Z</time></trkpt><trkpt lat="43.7780717" lon="11.2218433"><ele>46.0</ele><time>2026-04-17T16:14:58.926Z</time></trkpt><trkpt lat="43.7780233" lon="11.2219533"><ele>46.0</ele><time>2026-04-17T16:15:01.926Z</time></trkpt><trkpt lat="43.777985" lon="11.2220333"><ele>46.0</ele><time>2026-04-17T16:15:03.926Z</time></trkpt><trkpt lat="43.7779583" lon="11.22212"><ele>46.0</ele><time>2026-04-17T16:15:05.926Z</time></trkpt><trkpt lat="43.7779133" lon="11.2222517"><ele>46.0</ele><time>2026-04-17T16:15:08.926Z</time></trkpt><trkpt lat="43.7778783" lon="11.2223333"><ele>46.0</ele><time>2026-04-17T16:15:10.925Z</time></trkpt><trkpt lat="43.7778283" lon="11.2224467"><ele>46.0</ele><time>2026-04-17T16:15:13.925Z</time></trkpt><trkpt lat="43.77779" lon="11.2225383"><ele>46.0</ele><time>2026-04-17T16:15:15.925Z</time></trkpt><trkpt lat="43.7777583" lon="11.22264"><ele>46.0</ele><time>2026-04-17T16:15:17.925Z</time></trkpt><trkpt lat="43.7777367" lon="11.2227233"><ele>46.0</ele><time>2026-04-17T16:15:19.925Z</time></trkpt><trkpt lat="43.7777033" lon="11.2228217"><ele>46.0</ele><time>2026-04-17T16:15:22.925Z</time></trkpt><trkpt lat="43.7776683" lon="11.22294"><ele>46.0</ele><time>2026-04-17T16:15:25.925Z</time></trkpt><trkpt lat="43.7776267" lon="11.2230433"><ele>46.0</ele><time>2026-04-17T16:15:28.925Z</time></trkpt><trkpt lat="43.7776" lon="11.2231267"><ele>46.0</ele><time>2026-04-17T16:15:30.925Z</time></trkpt><trkpt lat="43.7775717" lon="11.223205"><ele>46.0</ele><time>2026-04-17T16:15:32.925Z</time></trkpt><trkpt lat="43.7775383" lon="11.22331"><ele>45.5</ele><time>2026-04-17T16:15:35.925Z</time></trkpt><trkpt lat="43.7775167" lon="11.223415"><ele>45.0</ele><time>2026-04-17T16:15:38.925Z</time></trkpt><trkpt lat="43.7774733" lon="11.22348"><ele>44.5</ele><time>2026-04-17T16:15:40.925Z</time></trkpt><trkpt lat="43.7774217" lon="11.223555"><ele>44.0</ele><time>2026-04-17T16:15:43.925Z</time></trkpt><trkpt lat="43.7774033" lon="11.2236433"><ele>43.5</ele><time>2026-04-17T16:15:46.925Z</time></trkpt><trkpt lat="43.7773867" lon="11.223745"><ele>43.0</ele><time>2026-04-17T16:15:48.925Z</time></trkpt><trkpt lat="43.7773383" lon="11.22388"><ele>43.0</ele><time>2026-04-17T16:15:50.925Z</time></trkpt><trkpt lat="43.7773033" lon="11.2239767"><ele>43.0</ele><time>2026-04-17T16:15:52.925Z</time></trkpt><trkpt lat="43.777295" lon="11.2240733"><ele>43.0</ele><time>2026-04-17T16:15:54.925Z</time></trkpt><trkpt lat="43.7773067" lon="11.2241933"><ele>43.0</ele><time>2026-04-17T16:15:56.925Z</time></trkpt><trkpt lat="43.7772317" lon="11.2245017"><ele>42.85714285714286</ele><time>2026-04-17T16:15:58.925Z</time></trkpt><trkpt lat="43.7772167" lon="11.22459"><ele>42.714285714285715</ele><time>2026-04-17T16:16:00.926Z</time></trkpt><trkpt lat="43.7771933" lon="11.2246733"><ele>42.57142857142857</ele><time>2026-04-17T16:16:02.925Z</time></trkpt><trkpt lat="43.7771517" lon="11.2247817"><ele>42.42857142857143</ele><time>2026-04-17T16:16:05.925Z</time></trkpt><trkpt lat="43.7771183" lon="11.2248633"><ele>42.285714285714285</ele><time>2026-04-17T16:16:08.925Z</time></trkpt><trkpt lat="43.7770917" lon="11.2249583"><ele>42.142857142857146</ele><time>2026-04-17T16:16:11.925Z</time></trkpt><trkpt lat="43.7770667" lon="11.2250533"><ele>42.0</ele><time>2026-04-17T16:16:14.925Z</time></trkpt><trkpt lat="43.7770417" lon="11.22515"><ele>42.0</ele><time>2026-04-17T16:16:17.925Z</time></trkpt><trkpt lat="43.7770083" lon="11.22524"><ele>42.0</ele><time>2026-04-17T16:16:20.925Z</time></trkpt><trkpt lat="43.77697" lon="11.2253383"><ele>42.0</ele><time>2026-04-17T16:16:23.926Z</time></trkpt><trkpt lat="43.7769283" lon="11.2254517"><ele>42.0</ele><time>2026-04-17T16:16:26.925Z</time></trkpt><trkpt lat="43.7768917" lon="11.2255633"><ele>42.0</ele><time>2026-04-17T16:16:28.925Z</time></trkpt><trkpt lat="43.77685" lon="11.2256567"><ele>42.0</ele><time>2026-04-17T16:16:30.925Z</time></trkpt><trkpt lat="43.7768183" lon="11.2257383"><ele>42.166666666666664</ele><time>2026-04-17T16:16:32.926Z</time></trkpt><trkpt lat="43.7767683" lon="11.2258383"><ele>42.333333333333336</ele><time>2026-04-17T16:16:35.925Z</time></trkpt><trkpt lat="43.7767383" lon="11.2259417"><ele>42.5</ele><time>2026-04-17T16:16:38.925Z</time></trkpt><trkpt lat="43.7767083" lon="11.2260517"><ele>42.66666666666667</ele><time>2026-04-17T16:16:41.925Z</time></trkpt><trkpt lat="43.77668" lon="11.2261533"><ele>42.833333333333336</ele><time>2026-04-17T16:16:44.925Z</time></trkpt><trkpt lat="43.7766567" lon="11.2262383"><ele>43.0</ele><time>2026-04-17T16:16:46.925Z</time></trkpt><trkpt lat="43.7766083" lon="11.2263467"><ele>43.0</ele><time>2026-04-17T16:16:49.926Z</time></trkpt><trkpt lat="43.7765567" lon="11.2264517"><ele>43.0</ele><time>2026-04-17T16:16:52.925Z</time></trkpt><trkpt lat="43.7765367" lon="11.2265467"><ele>43.0</ele><time>2026-04-17T16:16:54.925Z</time></trkpt><trkpt lat="43.77651" lon="11.22664"><ele>43.0</ele><time>2026-04-17T16:16:56.925Z</time></trkpt><trkpt lat="43.7764917" lon="11.2267333"><ele>43.0</ele><time>2026-04-17T16:16:58.925Z</time></trkpt><trkpt lat="43.7764667" lon="11.22683"><ele>43.0</ele><time>2026-04-17T16:17:00.925Z</time></trkpt><trkpt lat="43.77644" lon="11.226925"><ele>43.00000000000001</ele><time>2026-04-17T16:17:02.925Z</time></trkpt><trkpt lat="43.7764133" lon="11.2270117"><ele>43.0</ele><time>2026-04-17T16:17:04.925Z</time></trkpt><trkpt lat="43.7763833" lon="11.2270967"><ele>43.0</ele><time>2026-04-17T16:17:06.925Z</time></trkpt><trkpt lat="43.7763533" lon="11.2271883"><ele>43.0</ele><time>2026-04-17T16:17:08.925Z</time></trkpt><trkpt lat="43.7763317" lon="11.2272733"><ele>43.0</ele><time>2026-04-17T16:17:10.925Z</time></trkpt><trkpt lat="43.7763117" lon="11.2273683"><ele>43.00000000000001</ele><time>2026-04-17T16:17:12.925Z</time></trkpt><trkpt lat="43.7762933" lon="11.227465"><ele>43.0</ele><time>2026-04-17T16:17:14.925Z</time></trkpt><trkpt lat="43.7762683" lon="11.227565"><ele>43.00000000000001</ele><time>2026-04-17T16:17:16.925Z</time></trkpt><trkpt lat="43.7762367" lon="11.227655"><ele>43.0</ele><time>2026-04-17T16:17:18.926Z</time></trkpt><trkpt lat="43.7762017" lon="11.22775"><ele>43.0</ele><time>2026-04-17T16:17:20.925Z</time></trkpt><trkpt lat="43.7761633" lon="11.227835"><ele>43.0</ele><time>2026-04-17T16:17:22.925Z</time></trkpt><trkpt lat="43.776125" lon="11.22792"><ele>43.0</ele><time>2026-04-17T16:17:24.925Z</time></trkpt><trkpt lat="43.77609" lon="11.22801"><ele>43.00000000000001</ele><time>2026-04-17T16:17:26.926Z</time></trkpt><trkpt lat="43.776055" lon="11.2281"><ele>43.0</ele><time>2026-04-17T16:17:28.925Z</time></trkpt><trkpt lat="43.7760267" lon="11.2281983"><ele>43.00000000000001</ele><time>2026-04-17T16:17:30.925Z</time></trkpt><trkpt lat="43.7760033" lon="11.228295"><ele>43.0</ele><time>2026-04-17T16:17:32.926Z</time></trkpt><trkpt lat="43.7759767" lon="11.22839"><ele>43.0</ele><time>2026-04-17T16:17:34.925Z</time></trkpt><trkpt lat="43.7759533" lon="11.22848"><ele>43.0</ele><time>2026-04-17T16:17:36.926Z</time></trkpt><trkpt lat="43.775925" lon="11.2285717"><ele>43.0</ele><time>2026-04-17T16:17:39.926Z</time></trkpt><trkpt lat="43.7758933" lon="11.22866"><ele>43.00000000000001</ele><time>2026-04-17T16:17:42.925Z</time></trkpt><trkpt lat="43.77588" lon="11.2287633"><ele>43.0</ele><time>2026-04-17T16:17:46.925Z</time></trkpt><trkpt lat="43.7758617" lon="11.228875"><ele>42.833333333333336</ele><time>2026-04-17T16:17:50.925Z</time></trkpt><trkpt lat="43.7758833" lon="11.228985"><ele>42.66666666666667</ele><time>2026-04-17T16:17:54.925Z</time></trkpt><trkpt lat="43.77593" lon="11.2290717"><ele>42.5</ele><time>2026-04-17T16:17:58.925Z</time></trkpt><trkpt lat="43.7759783" lon="11.2291467"><ele>42.333333333333336</ele><time>2026-04-17T16:18:01.925Z</time></trkpt><trkpt lat="43.7760267" lon="11.22925"><ele>42.166666666666664</ele><time>2026-04-17T16:18:06.925Z</time></trkpt><trkpt lat="43.7760933" lon="11.2293183"><ele>42.0</ele><time>2026-04-17T16:18:08.925Z</time></trkpt><trkpt lat="43.77615" lon="11.2293967"><ele>42.0</ele><time>2026-04-17T16:18:11.925Z</time></trkpt><trkpt lat="43.7762117" lon="11.2294783"><ele>42.0</ele><time>2026-04-17T16:18:14.925Z</time></trkpt><trkpt lat="43.77615" lon="11.2294567"><ele>42.0</ele><time>2026-04-17T16:18:15.925Z</time></trkpt><trkpt lat="43.7762133" lon="11.22951"><ele>42.0</ele><time>2026-04-17T16:18:16.925Z</time></trkpt><trkpt lat="43.7762833" lon="11.2295967"><ele>42.0</ele><time>2026-04-17T16:18:19.925Z</time></trkpt><trkpt lat="43.7763433" lon="11.2296917"><ele>42.0</ele><time>2026-04-17T16:18:23.925Z</time></trkpt><trkpt lat="43.7762567" lon="11.2296717"><ele>42.0</ele><time>2026-04-17T16:18:25.925Z</time></trkpt><trkpt lat="43.776375" lon="11.2297567"><ele>42.0</ele><time>2026-04-17T16:18:26.925Z</time></trkpt><trkpt lat="43.7764217" lon="11.2296367"><ele>42.0</ele><time>2026-04-17T16:18:27.925Z</time></trkpt><trkpt lat="43.7764933" lon="11.229655"><ele>42.0</ele><time>2026-04-17T16:18:30.925Z</time></trkpt><trkpt lat="43.776565" lon="11.2296817"><ele>42.0</ele><time>2026-04-17T16:18:32.925Z</time></trkpt><trkpt lat="43.7766367" lon="11.2297083"><ele>42.0</ele><time>2026-04-17T16:18:34.926Z</time></trkpt><trkpt lat="43.77671" lon="11.2297517"><ele>42.0</ele><time>2026-04-17T16:18:36.926Z</time></trkpt><trkpt lat="43.776785" lon="11.229805"><ele>42.0</ele><time>2026-04-17T16:18:38.925Z</time></trkpt><trkpt lat="43.7768533" lon="11.229895"><ele>42.0</ele><time>2026-04-17T16:18:40.925Z</time></trkpt><trkpt lat="43.77689" lon="11.230005"><ele>42.0</ele><time>2026-04-17T16:18:42.925Z</time></trkpt><trkpt lat="43.776885" lon="11.2301583"><ele>42.2</ele><time>2026-04-17T16:18:44.924Z</time></trkpt><trkpt lat="43.7768717" lon="11.2303117"><ele>42.400000000000006</ele><time>2026-04-17T16:18:46.924Z</time></trkpt><trkpt lat="43.7768483" lon="11.2304467"><ele>42.599999999999994</ele><time>2026-04-17T16:18:48.924Z</time></trkpt><trkpt lat="43.7768133" lon="11.2305717"><ele>42.8</ele><time>2026-04-17T16:18:50.924Z</time></trkpt><trkpt lat="43.77677" lon="11.2306867"><ele>43.0</ele><time>2026-04-17T16:18:52.924Z</time></trkpt><trkpt lat="43.776735" lon="11.230795"><ele>43.16666666666667</ele><time>2026-04-17T16:18:54.925Z</time></trkpt><trkpt lat="43.7767067" lon="11.2309"><ele>43.333333333333336</ele><time>2026-04-17T16:18:56.924Z</time></trkpt><trkpt lat="43.7766783" lon="11.231005"><ele>43.5</ele><time>2026-04-17T16:18:58.925Z</time></trkpt><trkpt lat="43.7766483" lon="11.2311067"><ele>43.666666666666664</ele><time>2026-04-17T16:19:00.924Z</time></trkpt><trkpt lat="43.776625" lon="11.2311917"><ele>43.83333333333333</ele><time>2026-04-17T16:19:02.924Z</time></trkpt><trkpt lat="43.7765883" lon="11.2312983"><ele>44.0</ele><time>2026-04-17T16:19:05.924Z</time></trkpt><trkpt lat="43.7765433" lon="11.231395"><ele>44.666666666666664</ele><time>2026-04-17T16:19:08.924Z</time></trkpt><trkpt lat="43.776515" lon="11.2315"><ele>45.33333333333333</ele><time>2026-04-17T16:19:11.925Z</time></trkpt><trkpt lat="43.7764783" lon="11.2315767"><ele>46.0</ele><time>2026-04-17T16:19:13.925Z</time></trkpt><trkpt lat="43.7764483" lon="11.23166"><ele>46.666666666666664</ele><time>2026-04-17T16:19:15.924Z</time></trkpt><trkpt lat="43.77641" lon="11.23178"><ele>47.333333333333336</ele><time>2026-04-17T16:19:18.924Z</time></trkpt><trkpt lat="43.77638" lon="11.2318817"><ele>48.0</ele><time>2026-04-17T16:19:20.924Z</time></trkpt><trkpt lat="43.7763567" lon="11.23197"><ele>47.99999999999999</ele><time>2026-04-17T16:19:22.924Z</time></trkpt><trkpt lat="43.776335" lon="11.2320617"><ele>48.0</ele><time>2026-04-17T16:19:24.925Z</time></trkpt><trkpt lat="43.77632" lon="11.2321567"><ele>48.0</ele><time>2026-04-17T16:19:26.925Z</time></trkpt><trkpt lat="43.7762883" lon="11.2322467"><ele>48.0</ele><time>2026-04-17T16:19:28.925Z</time></trkpt><trkpt lat="43.7762667" lon="11.2323317"><ele>48.0</ele><time>2026-04-17T16:19:30.924Z</time></trkpt><trkpt lat="43.7762283" lon="11.2324267"><ele>47.99999999999999</ele><time>2026-04-17T16:19:32.924Z</time></trkpt><trkpt lat="43.7762033" lon="11.2325117"><ele>48.0</ele><time>2026-04-17T16:19:34.924Z</time></trkpt><trkpt lat="43.776185" lon="11.2326033"><ele>48.333333333333336</ele><time>2026-04-17T16:19:36.924Z</time></trkpt><trkpt lat="43.77616" lon="11.232725"><ele>48.66666666666667</ele><time>2026-04-17T16:19:39.924Z</time></trkpt><trkpt lat="43.77614" lon="11.2328083"><ele>49.0</ele><time>2026-04-17T16:19:41.924Z</time></trkpt><trkpt lat="43.7761217" lon="11.2329067"><ele>49.333333333333336</ele><time>2026-04-17T16:19:43.924Z</time></trkpt><trkpt lat="43.7760967" lon="11.2329983"><ele>49.66666666666667</ele><time>2026-04-17T16:19:45.924Z</time></trkpt><trkpt lat="43.776075" lon="11.2330983"><ele>50.0</ele><time>2026-04-17T16:19:47.925Z</time></trkpt><trkpt lat="43.7760517" lon="11.23322"><ele>49.42857142857143</ele><time>2026-04-17T16:19:50.924Z</time></trkpt><trkpt lat="43.776025" lon="11.233305"><ele>48.85714285714286</ele><time>2026-04-17T16:19:52.924Z</time></trkpt><trkpt lat="43.7759917" lon="11.2334217"><ele>48.28571428571429</ele><time>2026-04-17T16:19:55.924Z</time></trkpt><trkpt lat="43.7759633" lon="11.233505"><ele>47.714285714285715</ele><time>2026-04-17T16:19:57.924Z</time></trkpt><trkpt lat="43.77594" lon="11.2335867"><ele>47.14285714285714</ele><time>2026-04-17T16:19:59.925Z</time></trkpt><trkpt lat="43.7759217" lon="11.2336767"><ele>46.57142857142858</ele><time>2026-04-17T16:20:01.925Z</time></trkpt><trkpt lat="43.7759" lon="11.23377"><ele>46.0</ele><time>2026-04-17T16:20:03.924Z</time></trkpt><trkpt lat="43.7758767" lon="11.2338683"><ele>45.66666666666667</ele><time>2026-04-17T16:20:05.925Z</time></trkpt><trkpt lat="43.7758617" lon="11.233975"><ele>45.333333333333336</ele><time>2026-04-17T16:20:07.924Z</time></trkpt><trkpt lat="43.7758533" lon="11.2340833"><ele>45.0</ele><time>2026-04-17T16:20:09.924Z</time></trkpt><trkpt lat="43.7758517" lon="11.2341817"><ele>44.666666666666664</ele><time>2026-04-17T16:20:11.924Z</time></trkpt><trkpt lat="43.7758617" lon="11.2343167"><ele>44.33333333333333</ele><time>2026-04-17T16:20:14.924Z</time></trkpt><trkpt lat="43.77587" lon="11.2344233"><ele>44.0</ele><time>2026-04-17T16:20:16.925Z</time></trkpt><trkpt lat="43.775875" lon="11.2345217"><ele>44.0</ele><time>2026-04-17T16:20:18.925Z</time></trkpt><trkpt lat="43.7758783" lon="11.2346167"><ele>44.0</ele><time>2026-04-17T16:20:20.925Z</time></trkpt><trkpt lat="43.7759267" lon="11.2347367"><ele>44.0</ele><time>2026-04-17T16:20:23.924Z</time></trkpt><trkpt lat="43.7759683" lon="11.2348483"><ele>44.0</ele><time>2026-04-17T16:20:26.924Z</time></trkpt><trkpt lat="43.77602" lon="11.234955"><ele>44.0</ele><time>2026-04-17T16:20:29.924Z</time></trkpt><trkpt lat="43.7760633" lon="11.2350583"><ele>44.0</ele><time>2026-04-17T16:20:32.924Z</time></trkpt><trkpt lat="43.776075" lon="11.235185"><ele>44.0</ele><time>2026-04-17T16:20:35.924Z</time></trkpt><trkpt lat="43.7760667" lon="11.235285"><ele>44.0</ele><time>2026-04-17T16:20:37.925Z</time></trkpt><trkpt lat="43.77606" lon="11.23538"><ele>44.0</ele><time>2026-04-17T16:20:39.925Z</time></trkpt><trkpt lat="43.7760517" lon="11.2354783"><ele>44.0</ele><time>2026-04-17T16:20:41.925Z</time></trkpt><trkpt lat="43.7760367" lon="11.2355767"><ele>44.0</ele><time>2026-04-17T16:20:43.925Z</time></trkpt><trkpt lat="43.7760033" lon="11.23567"><ele>44.0</ele><time>2026-04-17T16:20:45.924Z</time></trkpt><trkpt lat="43.7759783" lon="11.235755"><ele>44.0</ele><time>2026-04-17T16:20:47.924Z</time></trkpt><trkpt lat="43.775955" lon="11.2358683"><ele>44.33333333333333</ele><time>2026-04-17T16:20:50.925Z</time></trkpt><trkpt lat="43.775925" lon="11.235965"><ele>44.666666666666664</ele><time>2026-04-17T16:20:54.924Z</time></trkpt><trkpt lat="43.7758867" lon="11.236035"><ele>45.0</ele><time>2026-04-17T16:20:57.925Z</time></trkpt><trkpt lat="43.775865" lon="11.236125"><ele>45.333333333333336</ele><time>2026-04-17T16:21:00.925Z</time></trkpt><trkpt lat="43.7758567" lon="11.236235"><ele>45.66666666666667</ele><time>2026-04-17T16:21:03.925Z</time></trkpt><trkpt lat="43.7758467" lon="11.23637"><ele>46.0</ele><time>2026-04-17T16:21:06.924Z</time></trkpt><trkpt lat="43.7758283" lon="11.2364817"><ele>46.16666666666667</ele><time>2026-04-17T16:21:08.924Z</time></trkpt><trkpt lat="43.7757967" lon="11.2365917"><ele>46.333333333333336</ele><time>2026-04-17T16:21:10.924Z</time></trkpt><trkpt lat="43.7757567" lon="11.236685"><ele>46.5</ele><time>2026-04-17T16:21:12.924Z</time></trkpt><trkpt lat="43.7756917" lon="11.23675"><ele>46.666666666666664</ele><time>2026-04-17T16:21:14.924Z</time></trkpt><trkpt lat="43.7756233" lon="11.2368083"><ele>46.83333333333333</ele><time>2026-04-17T16:21:16.925Z</time></trkpt><trkpt lat="43.775555" lon="11.2368183"><ele>47.0</ele><time>2026-04-17T16:21:18.924Z</time></trkpt><trkpt lat="43.775465" lon="11.2368017"><ele>47.0</ele><time>2026-04-17T16:21:21.925Z</time></trkpt><trkpt lat="43.7753783" lon="11.2367583"><ele>47.0</ele><time>2026-04-17T16:21:24.925Z</time></trkpt><trkpt lat="43.77532" lon="11.236725"><ele>47.0</ele><time>2026-04-17T16:21:26.924Z</time></trkpt><trkpt lat="43.7752483" lon="11.2367017"><ele>47.0</ele><time>2026-04-17T16:21:28.925Z</time></trkpt><trkpt lat="43.7751833" lon="11.2366633"><ele>47.0</ele><time>2026-04-17T16:21:30.924Z</time></trkpt><trkpt lat="43.7751233" lon="11.236625"><ele>47.0</ele><time>2026-04-17T16:21:32.924Z</time></trkpt><trkpt lat="43.7750517" lon="11.23661"><ele>47.0</ele><time>2026-04-17T16:21:34.924Z</time></trkpt><trkpt lat="43.7749883" lon="11.236605"><ele>47.14285714285714</ele><time>2026-04-17T16:21:37.924Z</time></trkpt><trkpt lat="43.7749617" lon="11.2366883"><ele>47.285714285714285</ele><time>2026-04-17T16:21:40.925Z</time></trkpt><trkpt lat="43.77493" lon="11.23681"><ele>47.42857142857143</ele><time>2026-04-17T16:21:43.924Z</time></trkpt><trkpt lat="43.774915" lon="11.2368983"><ele>47.57142857142857</ele><time>2026-04-17T16:21:45.924Z</time></trkpt><trkpt lat="43.774905" lon="11.236985"><ele>47.714285714285715</ele><time>2026-04-17T16:21:47.925Z</time></trkpt><trkpt lat="43.7748817" lon="11.2370683"><ele>47.857142857142854</ele><time>2026-04-17T16:21:49.925Z</time></trkpt><trkpt lat="43.7748433" lon="11.2371517"><ele>48.0</ele><time>2026-04-17T16:21:51.924Z</time></trkpt><trkpt lat="43.7747967" lon="11.2372417"><ele>48.5</ele><time>2026-04-17T16:21:53.924Z</time></trkpt><trkpt lat="43.7747567" lon="11.237325"><ele>49.0</ele><time>2026-04-17T16:21:55.924Z</time></trkpt><trkpt lat="43.7747317" lon="11.2374133"><ele>49.5</ele><time>2026-04-17T16:21:57.924Z</time></trkpt><trkpt lat="43.77471" lon="11.2374967"><ele>50.0</ele><time>2026-04-17T16:21:59.924Z</time></trkpt><trkpt lat="43.7746717" lon="11.2376217"><ele>50.5</ele><time>2026-04-17T16:22:02.925Z</time></trkpt><trkpt lat="43.7746283" lon="11.23772"><ele>51.0</ele><time>2026-04-17T16:22:04.924Z</time></trkpt><trkpt lat="43.7745817" lon="11.2378317"><ele>51.0</ele><time>2026-04-17T16:22:06.925Z</time></trkpt><trkpt lat="43.7745433" lon="11.2379267"><ele>51.0</ele><time>2026-04-17T16:22:08.923Z</time></trkpt><trkpt lat="43.7745217" lon="11.238025"><ele>51.0</ele><time>2026-04-17T16:22:10.923Z</time></trkpt><trkpt lat="43.774505" lon="11.2381317"><ele>51.0</ele><time>2026-04-17T16:22:12.923Z</time></trkpt><trkpt lat="43.7744583" lon="11.2382267"><ele>51.0</ele><time>2026-04-17T16:22:14.923Z</time></trkpt><trkpt lat="43.7744267" lon="11.23833"><ele>51.0</ele><time>2026-04-17T16:22:16.924Z</time></trkpt><trkpt lat="43.774405" lon="11.23844"><ele>51.142857142857146</ele><time>2026-04-17T16:22:18.924Z</time></trkpt><trkpt lat="43.7743833" lon="11.2385483"><ele>51.28571428571429</ele><time>2026-04-17T16:22:20.923Z</time></trkpt><trkpt lat="43.7743633" lon="11.23864"><ele>51.42857142857143</ele><time>2026-04-17T16:22:22.924Z</time></trkpt><trkpt lat="43.7743317" lon="11.2387417"><ele>51.57142857142857</ele><time>2026-04-17T16:22:24.924Z</time></trkpt><trkpt lat="43.7743033" lon="11.238835"><ele>51.714285714285715</ele><time>2026-04-17T16:22:26.923Z</time></trkpt><trkpt lat="43.7742867" lon="11.2389233"><ele>51.857142857142854</ele><time>2026-04-17T16:22:28.923Z</time></trkpt><trkpt lat="43.77426" lon="11.2390083"><ele>52.0</ele><time>2026-04-17T16:22:30.924Z</time></trkpt><trkpt lat="43.7742317" lon="11.239095"><ele>51.666666666666664</ele><time>2026-04-17T16:22:32.923Z</time></trkpt><trkpt lat="43.774195" lon="11.2391867"><ele>51.33333333333333</ele><time>2026-04-17T16:22:34.924Z</time></trkpt><trkpt lat="43.7741667" lon="11.2392817"><ele>51.0</ele><time>2026-04-17T16:22:36.924Z</time></trkpt><trkpt lat="43.7741267" lon="11.23937"><ele>50.66666666666667</ele><time>2026-04-17T16:22:38.923Z</time></trkpt><trkpt lat="43.7740733" lon="11.2394517"><ele>50.333333333333336</ele><time>2026-04-17T16:22:40.923Z</time></trkpt><trkpt lat="43.7740417" lon="11.2395683"><ele>50.0</ele><time>2026-04-17T16:22:43.923Z</time></trkpt><trkpt lat="43.7740133" lon="11.23968"><ele>50.00000000000001</ele><time>2026-04-17T16:22:46.923Z</time></trkpt><trkpt lat="43.7739783" lon="11.2397567"><ele>50.0</ele><time>2026-04-17T16:22:48.924Z</time></trkpt><trkpt lat="43.7739433" lon="11.2398317"><ele>50.0</ele><time>2026-04-17T16:22:50.924Z</time></trkpt><trkpt lat="43.7739" lon="11.2399467"><ele>50.0</ele><time>2026-04-17T16:22:53.923Z</time></trkpt><trkpt lat="43.7738733" lon="11.2400283"><ele>50.0</ele><time>2026-04-17T16:22:55.923Z</time></trkpt><trkpt lat="43.7738433" lon="11.24011"><ele>50.00000000000001</ele><time>2026-04-17T16:22:57.923Z</time></trkpt><trkpt lat="43.7738217" lon="11.2401983"><ele>50.0</ele><time>2026-04-17T16:22:59.923Z</time></trkpt><trkpt lat="43.773795" lon="11.2402883"><ele>50.16666666666667</ele><time>2026-04-17T16:23:01.923Z</time></trkpt><trkpt lat="43.77376" lon="11.24039"><ele>50.333333333333336</ele><time>2026-04-17T16:23:03.924Z</time></trkpt><trkpt lat="43.77372" lon="11.2404833"><ele>50.5</ele><time>2026-04-17T16:23:05.923Z</time></trkpt><trkpt lat="43.7736983" lon="11.2405717"><ele>50.66666666666667</ele><time>2026-04-17T16:23:07.923Z</time></trkpt><trkpt lat="43.7736417" lon="11.2406867"><ele>50.833333333333336</ele><time>2026-04-17T16:23:10.923Z</time></trkpt><trkpt lat="43.7736083" lon="11.2407767"><ele>51.0</ele><time>2026-04-17T16:23:12.924Z</time></trkpt><trkpt lat="43.7735867" lon="11.24087"><ele>51.0</ele><time>2026-04-17T16:23:14.923Z</time></trkpt><trkpt lat="43.7735667" lon="11.240955"><ele>51.0</ele><time>2026-04-17T16:23:16.923Z</time></trkpt><trkpt lat="43.773545" lon="11.2410383"><ele>51.0</ele><time>2026-04-17T16:23:18.923Z</time></trkpt><trkpt lat="43.773515" lon="11.2411383"><ele>51.0</ele><time>2026-04-17T16:23:21.923Z</time></trkpt><trkpt lat="43.7734883" lon="11.24122"><ele>51.0</ele><time>2026-04-17T16:23:23.923Z</time></trkpt><trkpt lat="43.7734517" lon="11.24133"><ele>51.0</ele><time>2026-04-17T16:23:26.923Z</time></trkpt><trkpt lat="43.773415" lon="11.2414217"><ele>51.0</ele><time>2026-04-17T16:23:28.923Z</time></trkpt><trkpt lat="43.773375" lon="11.241515"><ele>49.833333333333336</ele><time>2026-04-17T16:23:30.923Z</time></trkpt><trkpt lat="43.7733367" lon="11.24161"><ele>48.666666666666664</ele><time>2026-04-17T16:23:32.923Z</time></trkpt><trkpt lat="43.7732983" lon="11.2417"><ele>47.5</ele><time>2026-04-17T16:23:34.923Z</time></trkpt><trkpt lat="43.7732717" lon="11.2417917"><ele>46.33333333333333</ele><time>2026-04-17T16:23:36.924Z</time></trkpt><trkpt lat="43.773245" lon="11.24188"><ele>45.166666666666664</ele><time>2026-04-17T16:23:38.924Z</time></trkpt><trkpt lat="43.77321" lon="11.24201"><ele>44.0</ele><time>2026-04-17T16:23:41.923Z</time></trkpt><trkpt lat="43.7731717" lon="11.2421017"><ele>44.0</ele><time>2026-04-17T16:23:43.923Z</time></trkpt><trkpt lat="43.7731433" lon="11.242195"><ele>44.0</ele><time>2026-04-17T16:23:45.924Z</time></trkpt><trkpt lat="43.773115" lon="11.24228"><ele>44.0</ele><time>2026-04-17T16:23:47.923Z</time></trkpt><trkpt lat="43.77308" lon="11.2423683"><ele>44.0</ele><time>2026-04-17T16:23:49.923Z</time></trkpt><trkpt lat="43.7730483" lon="11.24246"><ele>44.0</ele><time>2026-04-17T16:23:51.923Z</time></trkpt><trkpt lat="43.77302" lon="11.2425483"><ele>44.0</ele><time>2026-04-17T16:23:53.923Z</time></trkpt><trkpt lat="43.77299" lon="11.242645"><ele>44.0</ele><time>2026-04-17T16:23:55.924Z</time></trkpt><trkpt lat="43.7729667" lon="11.2427383"><ele>45.0</ele><time>2026-04-17T16:23:57.924Z</time></trkpt><trkpt lat="43.772935" lon="11.24283"><ele>46.0</ele><time>2026-04-17T16:23:59.924Z</time></trkpt><trkpt lat="43.7729067" lon="11.2429167"><ele>47.0</ele><time>2026-04-17T16:24:01.923Z</time></trkpt><trkpt lat="43.772865" lon="11.2430067"><ele>48.0</ele><time>2026-04-17T16:24:03.924Z</time></trkpt><trkpt lat="43.77282" lon="11.2430917"><ele>49.0</ele><time>2026-04-17T16:24:05.924Z</time></trkpt><trkpt lat="43.7727883" lon="11.2431717"><ele>50.0</ele><time>2026-04-17T16:24:07.923Z</time></trkpt><trkpt lat="43.7727383" lon="11.2432567"><ele>51.0</ele><time>2026-04-17T16:24:09.924Z</time></trkpt><trkpt lat="43.7727" lon="11.2433783"><ele>50.333333333333336</ele><time>2026-04-17T16:24:12.923Z</time></trkpt><trkpt lat="43.77266" lon="11.243485"><ele>49.666666666666664</ele><time>2026-04-17T16:24:14.924Z</time></trkpt><trkpt lat="43.7726267" lon="11.2435767"><ele>49.0</ele><time>2026-04-17T16:24:16.924Z</time></trkpt><trkpt lat="43.7725917" lon="11.2436567"><ele>48.33333333333333</ele><time>2026-04-17T16:24:18.923Z</time></trkpt><trkpt lat="43.7725583" lon="11.2437567"><ele>47.666666666666664</ele><time>2026-04-17T16:24:20.923Z</time></trkpt><trkpt lat="43.77253" lon="11.24387"><ele>47.0</ele><time>2026-04-17T16:24:22.924Z</time></trkpt><trkpt lat="43.7725017" lon="11.243975"><ele>48.33333333333333</ele><time>2026-04-17T16:24:24.923Z</time></trkpt><trkpt lat="43.77246" lon="11.24407"><ele>49.666666666666664</ele><time>2026-04-17T16:24:26.923Z</time></trkpt><trkpt lat="43.7724183" lon="11.2441633"><ele>51.0</ele><time>2026-04-17T16:24:28.923Z</time></trkpt><trkpt lat="43.7723917" lon="11.24425"><ele>52.33333333333333</ele><time>2026-04-17T16:24:30.924Z</time></trkpt><trkpt lat="43.77235" lon="11.2443383"><ele>53.666666666666664</ele><time>2026-04-17T16:24:32.923Z</time></trkpt><trkpt lat="43.77231" lon="11.2444433"><ele>55.0</ele><time>2026-04-17T16:24:34.924Z</time></trkpt><trkpt lat="43.7722683" lon="11.244535"><ele>54.99999999999999</ele><time>2026-04-17T16:24:36.923Z</time></trkpt><trkpt lat="43.772235" lon="11.2446333"><ele>55.0</ele><time>2026-04-17T16:24:38.924Z</time></trkpt><trkpt lat="43.7722017" lon="11.2447333"><ele>55.0</ele><time>2026-04-17T16:24:40.923Z</time></trkpt><trkpt lat="43.7721767" lon="11.2448233"><ele>55.0</ele><time>2026-04-17T16:24:42.923Z</time></trkpt><trkpt lat="43.7721317" lon="11.2449117"><ele>54.99999999999999</ele><time>2026-04-17T16:24:44.924Z</time></trkpt><trkpt lat="43.7720833" lon="11.2450017"><ele>55.0</ele><time>2026-04-17T16:24:46.924Z</time></trkpt><trkpt lat="43.7720567" lon="11.2450933"><ele>54.83333333333333</ele><time>2026-04-17T16:24:48.923Z</time></trkpt><trkpt lat="43.77201" lon="11.24517"><ele>54.666666666666664</ele><time>2026-04-17T16:24:50.923Z</time></trkpt><trkpt lat="43.7719833" lon="11.24526"><ele>54.5</ele><time>2026-04-17T16:24:53.924Z</time></trkpt><trkpt lat="43.7719317" lon="11.245375"><ele>54.33333333333333</ele><time>2026-04-17T16:24:56.923Z</time></trkpt><trkpt lat="43.7718867" lon="11.24546"><ele>54.166666666666664</ele><time>2026-04-17T16:24:58.923Z</time></trkpt><trkpt lat="43.7718583" lon="11.245545"><ele>54.0</ele><time>2026-04-17T16:25:00.924Z</time></trkpt><trkpt lat="43.77182" lon="11.24565"><ele>55.666666666666664</ele><time>2026-04-17T16:25:02.923Z</time></trkpt><trkpt lat="43.7717933" lon="11.245765"><ele>57.33333333333333</ele><time>2026-04-17T16:25:04.923Z</time></trkpt><trkpt lat="43.7717517" lon="11.245865"><ele>59.0</ele><time>2026-04-17T16:25:06.923Z</time></trkpt><trkpt lat="43.7717017" lon="11.2459683"><ele>60.666666666666664</ele><time>2026-04-17T16:25:08.923Z</time></trkpt><trkpt lat="43.7716617" lon="11.2460733"><ele>62.33333333333333</ele><time>2026-04-17T16:25:10.923Z</time></trkpt><trkpt lat="43.771615" lon="11.2461617"><ele>64.0</ele><time>2026-04-17T16:25:12.923Z</time></trkpt><trkpt lat="43.7715683" lon="11.2462533"><ele>64.0</ele><time>2026-04-17T16:25:14.923Z</time></trkpt><trkpt lat="43.7715283" lon="11.2463433"><ele>63.99999999999999</ele><time>2026-04-17T16:25:16.923Z</time></trkpt><trkpt lat="43.7714867" lon="11.2464283"><ele>64.0</ele><time>2026-04-17T16:25:18.924Z</time></trkpt><trkpt lat="43.7714517" lon="11.2465183"><ele>64.0</ele><time>2026-04-17T16:25:20.924Z</time></trkpt><trkpt lat="43.7714117" lon="11.2465983"><ele>63.99999999999999</ele><time>2026-04-17T16:25:22.923Z</time></trkpt><trkpt lat="43.7713683" lon="11.2466833"><ele>64.0</ele><time>2026-04-17T16:25:24.924Z</time></trkpt><trkpt lat="43.7713333" lon="11.2467767"><ele>64.0</ele><time>2026-04-17T16:25:26.922Z</time></trkpt><trkpt lat="43.7712867" lon="11.2468567"><ele>63.0</ele><time>2026-04-17T16:25:28.922Z</time></trkpt><trkpt lat="43.7712517" lon="11.246935"><ele>61.99999999999999</ele><time>2026-04-17T16:25:30.922Z</time></trkpt><trkpt lat="43.7712167" lon="11.2470283"><ele>61.0</ele><time>2026-04-17T16:25:32.922Z</time></trkpt><trkpt lat="43.7711767" lon="11.2471117"><ele>60.0</ele><time>2026-04-17T16:25:34.922Z</time></trkpt><trkpt lat="43.77114" lon="11.2471983"><ele>58.99999999999999</ele><time>2026-04-17T16:25:36.922Z</time></trkpt><trkpt lat="43.7711067" lon="11.247285"><ele>58.0</ele><time>2026-04-17T16:25:38.922Z</time></trkpt><trkpt lat="43.77108" lon="11.2473767"><ele>57.0</ele><time>2026-04-17T16:25:40.922Z</time></trkpt><trkpt lat="43.7710517" lon="11.2474567"><ele>56.0</ele><time>2026-04-17T16:25:42.922Z</time></trkpt><trkpt lat="43.7709967" lon="11.24752"><ele>55.0</ele><time>2026-04-17T16:25:45.922Z</time></trkpt><trkpt lat="43.770935" lon="11.2475733"><ele>54.0</ele><time>2026-04-17T16:25:49.922Z</time></trkpt><trkpt lat="43.7708867" lon="11.2476367"><ele>53.0</ele><time>2026-04-17T16:25:54.922Z</time></trkpt><trkpt lat="43.7708683" lon="11.24774"><ele>52.0</ele><time>2026-04-17T16:26:02.922Z</time></trkpt><trkpt lat="43.770935" lon="11.2478217"><ele>51.0</ele><time>2026-04-17T16:26:05.922Z</time></trkpt><trkpt lat="43.7709983" lon="11.2479067"><ele>51.333333333333336</ele><time>2026-04-17T16:26:08.922Z</time></trkpt><trkpt lat="43.7710367" lon="11.248025"><ele>51.66666666666667</ele><time>2026-04-17T16:26:11.922Z</time></trkpt><trkpt lat="43.77104" lon="11.2481183"><ele>52.0</ele><time>2026-04-17T16:26:13.923Z</time></trkpt><trkpt lat="43.7710733" lon="11.2482517"><ele>52.333333333333336</ele><time>2026-04-17T16:26:17.922Z</time></trkpt><trkpt lat="43.7710733" lon="11.2483433"><ele>52.66666666666667</ele><time>2026-04-17T16:26:20.922Z</time></trkpt><trkpt lat="43.7710417" lon="11.2484383"><ele>53.0</ele><time>2026-04-17T16:26:22.922Z</time></trkpt><trkpt lat="43.771025" lon="11.248555"><ele>53.66666666666667</ele><time>2026-04-17T16:26:24.922Z</time></trkpt><trkpt lat="43.771025" lon="11.248645"><ele>54.333333333333336</ele><time>2026-04-17T16:26:26.922Z</time></trkpt><trkpt lat="43.7710933" lon="11.2486883"><ele>55.0</ele><time>2026-04-17T16:26:29.922Z</time></trkpt><trkpt lat="43.7711617" lon="11.2487683"><ele>55.66666666666667</ele><time>2026-04-17T16:26:31.922Z</time></trkpt><trkpt lat="43.7712367" lon="11.2488883"><ele>56.333333333333336</ele><time>2026-04-17T16:26:34.922Z</time></trkpt><trkpt lat="43.7712667" lon="11.248965"><ele>57.0</ele><time>2026-04-17T16:26:37.922Z</time></trkpt><trkpt lat="43.771295" lon="11.2490433"><ele>57.166666666666664</ele><time>2026-04-17T16:26:40.922Z</time></trkpt><trkpt lat="43.771245" lon="11.2491217"><ele>57.33333333333333</ele><time>2026-04-17T16:26:43.922Z</time></trkpt><trkpt lat="43.7711783" lon="11.24921"><ele>57.5</ele><time>2026-04-17T16:26:45.922Z</time></trkpt><trkpt lat="43.7712067" lon="11.2493467"><ele>57.666666666666664</ele><time>2026-04-17T16:26:48.923Z</time></trkpt><trkpt lat="43.7712217" lon="11.249455"><ele>57.83333333333333</ele><time>2026-04-17T16:26:50.922Z</time></trkpt><trkpt lat="43.7711583" lon="11.2495083"><ele>58.0</ele><time>2026-04-17T16:26:52.922Z</time></trkpt><trkpt lat="43.7711617" lon="11.249615"><ele>57.99999999999999</ele><time>2026-04-17T16:26:54.922Z</time></trkpt><trkpt lat="43.771175" lon="11.2497183"><ele>58.0</ele><time>2026-04-17T16:26:57.923Z</time></trkpt><trkpt lat="43.771215" lon="11.2498067"><ele>58.0</ele><time>2026-04-17T16:27:00.922Z</time></trkpt><trkpt lat="43.77123" lon="11.2498967"><ele>58.0</ele><time>2026-04-17T16:27:03.922Z</time></trkpt><trkpt lat="43.771245" lon="11.2500133"><ele>57.99999999999999</ele><time>2026-04-17T16:27:06.922Z</time></trkpt><trkpt lat="43.7712983" lon="11.2501"><ele>58.0</ele><time>2026-04-17T16:27:08.922Z</time></trkpt><trkpt lat="43.7713417" lon="11.250195"><ele>57.83333333333333</ele><time>2026-04-17T16:27:11.922Z</time></trkpt><trkpt lat="43.7713533" lon="11.2502967"><ele>57.666666666666664</ele><time>2026-04-17T16:27:14.922Z</time></trkpt><trkpt lat="43.7713817" lon="11.2504017"><ele>57.5</ele><time>2026-04-17T16:27:17.922Z</time></trkpt><trkpt lat="43.7714283" lon="11.2504883"><ele>57.33333333333333</ele><time>2026-04-17T16:27:19.923Z</time></trkpt><trkpt lat="43.7714417" lon="11.2505767"><ele>57.166666666666664</ele><time>2026-04-17T16:27:22.922Z</time></trkpt><trkpt lat="43.771475" lon="11.2506917"><ele>57.0</ele><time>2026-04-17T16:27:24.922Z</time></trkpt><trkpt lat="43.771515" lon="11.250775"><ele>58.0</ele><time>2026-04-17T16:27:26.922Z</time></trkpt><trkpt lat="43.77156" lon="11.2508533"><ele>59.0</ele><time>2026-04-17T16:27:28.922Z</time></trkpt><trkpt lat="43.7715917" lon="11.2509433"><ele>60.0</ele><time>2026-04-17T16:27:30.923Z</time></trkpt><trkpt lat="43.7716083" lon="11.2510467"><ele>61.0</ele><time>2026-04-17T16:27:32.922Z</time></trkpt><trkpt lat="43.7715617" lon="11.25117"><ele>62.0</ele><time>2026-04-17T16:27:34.922Z</time></trkpt><trkpt lat="43.771525" lon="11.2512883"><ele>63.0</ele><time>2026-04-17T16:27:36.922Z</time></trkpt><trkpt lat="43.7714767" lon="11.2513967"><ele>63.333333333333336</ele><time>2026-04-17T16:27:38.923Z</time></trkpt><trkpt lat="43.7715067" lon="11.2515283"><ele>63.66666666666667</ele><time>2026-04-17T16:27:41.922Z</time></trkpt><trkpt lat="43.7715267" lon="11.2516167"><ele>64.0</ele><time>2026-04-17T16:27:43.922Z</time></trkpt><trkpt lat="43.7715467" lon="11.251745"><ele>64.33333333333334</ele><time>2026-04-17T16:27:46.922Z</time></trkpt><trkpt lat="43.771535" lon="11.2518583"><ele>64.66666666666667</ele><time>2026-04-17T16:27:48.922Z</time></trkpt><trkpt lat="43.7715567" lon="11.251995"><ele>65.0</ele><time>2026-04-17T16:27:51.923Z</time></trkpt><trkpt lat="43.77155" lon="11.2521033"><ele>65.0</ele><time>2026-04-17T16:27:54.923Z</time></trkpt><trkpt lat="43.7716" lon="11.2521817"><ele>65.0</ele><time>2026-04-17T16:27:57.922Z</time></trkpt><trkpt lat="43.7716333" lon="11.2522717"><ele>65.0</ele><time>2026-04-17T16:28:00.922Z</time></trkpt><trkpt lat="43.771665" lon="11.2523767"><ele>65.0</ele><time>2026-04-17T16:28:03.922Z</time></trkpt><trkpt lat="43.7716483" lon="11.2524633"><ele>65.0</ele><time>2026-04-17T16:28:05.923Z</time></trkpt><trkpt lat="43.7716667" lon="11.2526467"><ele>65.0</ele><time>2026-04-17T16:28:11.922Z</time></trkpt><trkpt lat="43.7716017" lon="11.2526917"><ele>64.8</ele><time>2026-04-17T16:28:15.922Z</time></trkpt><trkpt lat="43.7715717" lon="11.25279"><ele>64.6</ele><time>2026-04-17T16:28:17.922Z</time></trkpt><trkpt lat="43.771595" lon="11.2529283"><ele>64.4</ele><time>2026-04-17T16:28:20.922Z</time></trkpt><trkpt lat="43.7715783" lon="11.2530333"><ele>64.2</ele><time>2026-04-17T16:28:22.922Z</time></trkpt><trkpt lat="43.77153" lon="11.2531117"><ele>64.0</ele><time>2026-04-17T16:28:24.922Z</time></trkpt><trkpt lat="43.7714633" lon="11.2532683"><ele>64.60000000000001</ele><time>2026-04-17T16:28:29.922Z</time></trkpt><trkpt lat="43.7715133" lon="11.2535"><ele>65.2</ele><time>2026-04-17T16:28:32.922Z</time></trkpt><trkpt lat="43.771545" lon="11.2535967"><ele>65.80000000000001</ele><time>2026-04-17T16:28:34.922Z</time></trkpt><trkpt lat="43.77156" lon="11.2536917"><ele>66.4</ele><time>2026-04-17T16:28:36.922Z</time></trkpt><trkpt lat="43.77159" lon="11.2537817"><ele>67.0</ele><time>2026-04-17T16:28:39.921Z</time></trkpt><trkpt lat="43.7715983" lon="11.2539067"><ele>66.57142857142857</ele><time>2026-04-17T16:28:42.921Z</time></trkpt><trkpt lat="43.7715667" lon="11.2539967"><ele>66.14285714285714</ele><time>2026-04-17T16:28:45.921Z</time></trkpt><trkpt lat="43.7715633" lon="11.25409"><ele>65.71428571428571</ele><time>2026-04-17T16:28:48.921Z</time></trkpt><trkpt lat="43.7715533" lon="11.2541983"><ele>65.28571428571428</ele><time>2026-04-17T16:28:51.921Z</time></trkpt><trkpt lat="43.7715533" lon="11.2542933"><ele>64.85714285714285</ele><time>2026-04-17T16:28:54.921Z</time></trkpt><trkpt lat="43.7715933" lon="11.254375"><ele>64.42857142857143</ele><time>2026-04-17T16:28:58.922Z</time></trkpt><trkpt lat="43.77162" lon="11.25447"><ele>64.0</ele><time>2026-04-17T16:29:01.921Z</time></trkpt><trkpt lat="43.7716217" lon="11.2545583"><ele>63.99999999999999</ele><time>2026-04-17T16:29:04.921Z</time></trkpt><trkpt lat="43.7716233" lon="11.2546683"><ele>64.0</ele><time>2026-04-17T16:29:07.921Z</time></trkpt><trkpt lat="43.7715917" lon="11.2547667"><ele>64.0</ele><time>2026-04-17T16:29:10.921Z</time></trkpt><trkpt lat="43.7715883" lon="11.25489"><ele>64.0</ele><time>2026-04-17T16:29:14.921Z</time></trkpt><trkpt lat="43.771595" lon="11.2550033"><ele>63.99999999999999</ele><time>2026-04-17T16:29:17.922Z</time></trkpt><trkpt lat="43.771605" lon="11.2551"><ele>64.0</ele><time>2026-04-17T16:29:19.921Z</time></trkpt><trkpt lat="43.771615" lon="11.2551883"><ele>63.800000000000004</ele><time>2026-04-17T16:29:20.921Z</time></trkpt><trkpt lat="43.771655" lon="11.2552817"><ele>63.60000000000001</ele><time>2026-04-17T16:29:22.921Z</time></trkpt><trkpt lat="43.771725" lon="11.25525"><ele>63.4</ele><time>2026-04-17T16:29:25.922Z</time></trkpt><trkpt lat="43.7717917" lon="11.2551217"><ele>63.2</ele><time>2026-04-17T16:29:27.921Z</time></trkpt><trkpt lat="43.7719133" lon="11.255175"><ele>63.0</ele><time>2026-04-17T16:29:29.921Z</time></trkpt><trkpt lat="43.7720383" lon="11.2551067"><ele>63.4</ele><time>2026-04-17T16:29:31.921Z</time></trkpt><trkpt lat="43.77213" lon="11.2549333"><ele>63.8</ele><time>2026-04-17T16:29:33.921Z</time></trkpt><trkpt lat="43.7721467" lon="11.2550233"><ele>64.2</ele><time>2026-04-17T16:29:38.921Z</time></trkpt><trkpt lat="43.772145" lon="11.2551367"><ele>64.6</ele><time>2026-04-17T16:29:41.922Z</time></trkpt><trkpt lat="43.7721967" lon="11.2552767"><ele>65.0</ele><time>2026-04-17T16:29:45.922Z</time></trkpt><trkpt lat="43.7721517" lon="11.25535"><ele>65.0</ele><time>2026-04-17T16:29:48.921Z</time></trkpt><trkpt lat="43.7721583" lon="11.2554617"><ele>65.0</ele><time>2026-04-17T16:29:52.922Z</time></trkpt><trkpt lat="43.7722167" lon="11.2555933"><ele>65.0</ele><time>2026-04-17T16:29:55.922Z</time></trkpt><trkpt lat="43.7722867" lon="11.2556783"><ele>65.0</ele><time>2026-04-17T16:29:57.922Z</time></trkpt><trkpt lat="43.7723483" lon="11.2557433"><ele>65.0</ele><time>2026-04-17T16:30:02.922Z</time></trkpt><trkpt lat="43.7724283" lon="11.2557833"><ele>65.0</ele><time>2026-04-17T16:30:06.921Z</time></trkpt><trkpt lat="43.772495" lon="11.2558333"><ele>66.0</ele><time>2026-04-17T16:30:10.922Z</time></trkpt><trkpt lat="43.7725583" lon="11.2558367"><ele>67.0</ele><time>2026-04-17T16:30:12.921Z</time></trkpt><trkpt lat="43.7726483" lon="11.2558517"><ele>68.0</ele><time>2026-04-17T16:30:15.921Z</time></trkpt><trkpt lat="43.7727367" lon="11.255905"><ele>69.0</ele><time>2026-04-17T16:30:17.922Z</time></trkpt><trkpt lat="43.7727883" lon="11.25598"><ele>70.0</ele><time>2026-04-17T16:30:20.922Z</time></trkpt><trkpt lat="43.7728217" lon="11.256095"><ele>71.0</ele><time>2026-04-17T16:30:23.921Z</time></trkpt><trkpt lat="43.7728383" lon="11.25619"><ele>70.5</ele><time>2026-04-17T16:30:25.922Z</time></trkpt><trkpt lat="43.7728517" lon="11.2562783"><ele>70.0</ele><time>2026-04-17T16:30:27.922Z</time></trkpt><trkpt lat="43.772865" lon="11.2563817"><ele>69.5</ele><time>2026-04-17T16:30:29.921Z</time></trkpt><trkpt lat="43.7728417" lon="11.25649"><ele>69.0</ele><time>2026-04-17T16:30:32.922Z</time></trkpt><trkpt lat="43.77279" lon="11.2565517"><ele>68.5</ele><time>2026-04-17T16:30:35.922Z</time></trkpt><trkpt lat="43.7727317" lon="11.256605"><ele>68.0</ele><time>2026-04-17T16:30:37.921Z</time></trkpt><trkpt lat="43.772665" lon="11.2567"><ele>68.0</ele><time>2026-04-17T16:30:40.921Z</time></trkpt><trkpt lat="43.7726533" lon="11.25681"><ele>68.0</ele><time>2026-04-17T16:30:42.921Z</time></trkpt><trkpt lat="43.7726367" lon="11.2569283"><ele>68.0</ele><time>2026-04-17T16:30:45.921Z</time></trkpt><trkpt lat="43.772635" lon="11.2570533"><ele>68.0</ele><time>2026-04-17T16:30:48.921Z</time></trkpt><trkpt lat="43.7726367" lon="11.2571517"><ele>68.0</ele><time>2026-04-17T16:30:51.921Z</time></trkpt><trkpt lat="43.7726733" lon="11.25726"><ele>68.0</ele><time>2026-04-17T16:30:54.921Z</time></trkpt><trkpt lat="43.7727283" lon="11.25731"><ele>67.85714285714285</ele><time>2026-04-17T16:30:56.922Z</time></trkpt><trkpt lat="43.77278" lon="11.2573733"><ele>67.71428571428571</ele><time>2026-04-17T16:30:58.921Z</time></trkpt><trkpt lat="43.77283" lon="11.2574533"><ele>67.57142857142857</ele><time>2026-04-17T16:31:02.921Z</time></trkpt><trkpt lat="43.7728933" lon="11.2575133"><ele>67.42857142857142</ele><time>2026-04-17T16:31:04.921Z</time></trkpt><trkpt lat="43.77296" lon="11.2575767"><ele>67.28571428571428</ele><time>2026-04-17T16:31:06.921Z</time></trkpt><trkpt lat="43.7730267" lon="11.2576283"><ele>67.14285714285714</ele><time>2026-04-17T16:31:08.922Z</time></trkpt><trkpt lat="43.7730917" lon="11.2576483"><ele>67.0</ele><time>2026-04-17T16:31:11.921Z</time></trkpt><trkpt lat="43.7731633" lon="11.2576433"><ele>67.0</ele><time>2026-04-17T16:31:14.921Z</time></trkpt><trkpt lat="43.773225" lon="11.2576217"><ele>67.0</ele><time>2026-04-17T16:31:17.921Z</time></trkpt><trkpt lat="43.7732517" lon="11.2575217"><ele>67.0</ele><time>2026-04-17T16:31:19.922Z</time></trkpt><trkpt lat="43.7732933" lon="11.2574217"><ele>67.0</ele><time>2026-04-17T16:31:22.921Z</time></trkpt><trkpt lat="43.7733133" lon="11.257325"><ele>67.0</ele><time>2026-04-17T16:31:24.922Z</time></trkpt><trkpt lat="43.773335" lon="11.2572383"><ele>67.0</ele><time>2026-04-17T16:31:26.922Z</time></trkpt><trkpt lat="43.7733883" lon="11.2571633"><ele>67.0</ele><time>2026-04-17T16:31:30.921Z</time></trkpt><trkpt lat="43.77346" lon="11.2571667"><ele>66.16666666666666</ele><time>2026-04-17T16:31:33.921Z</time></trkpt><trkpt lat="43.77353" lon="11.2571533"><ele>65.33333333333333</ele><time>2026-04-17T16:31:36.921Z</time></trkpt><trkpt lat="43.7736" lon="11.2571583"><ele>64.5</ele><time>2026-04-17T16:31:38.921Z</time></trkpt><trkpt lat="43.773695" lon="11.2572033"><ele>63.66666666666667</ele><time>2026-04-17T16:31:40.921Z</time></trkpt><trkpt lat="43.773765" lon="11.2572517"><ele>62.833333333333336</ele><time>2026-04-17T16:31:42.921Z</time></trkpt><trkpt lat="43.7738117" lon="11.2573333"><ele>62.0</ele><time>2026-04-17T16:31:44.921Z</time></trkpt><trkpt lat="43.7738433" lon="11.2574383"><ele>62.0</ele><time>2026-04-17T16:31:47.921Z</time></trkpt><trkpt lat="43.7739183" lon="11.25752"><ele>62.0</ele><time>2026-04-17T16:31:50.92Z</time></trkpt><trkpt lat="43.7740367" lon="11.2576217"><ele>62.0</ele><time>2026-04-17T16:31:53.92Z</time></trkpt><trkpt lat="43.7741067" lon="11.257685"><ele>62.0</ele><time>2026-04-17T16:31:56.92Z</time></trkpt><trkpt lat="43.7741633" lon="11.257735"><ele>62.0</ele><time>2026-04-17T16:31:58.92Z</time></trkpt><trkpt lat="43.7742317" lon="11.2577917"><ele>62.00000000000001</ele><time>2026-04-17T16:32:00.92Z</time></trkpt><trkpt lat="43.7742833" lon="11.257845"><ele>62.0</ele><time>2026-04-17T16:32:02.92Z</time></trkpt><trkpt lat="43.774355" lon="11.2579083"><ele>62.0</ele><time>2026-04-17T16:32:05.92Z</time></trkpt><trkpt lat="43.7743933" lon="11.2579833"><ele>62.0</ele><time>2026-04-17T16:32:08.92Z</time></trkpt><trkpt lat="43.7744383" lon="11.2580533"><ele>62.00000000000001</ele><time>2026-04-17T16:32:12.92Z</time></trkpt><trkpt lat="43.774525" lon="11.25814"><ele>62.0</ele><time>2026-04-17T16:32:15.92Z</time></trkpt><trkpt lat="43.7745767" lon="11.2581917"><ele>61.66666666666667</ele><time>2026-04-17T16:32:17.92Z</time></trkpt><trkpt lat="43.77463" lon="11.25826"><ele>61.333333333333336</ele><time>2026-04-17T16:32:21.92Z</time></trkpt><trkpt lat="43.774685" lon="11.2583233"><ele>61.0</ele><time>2026-04-17T16:32:25.92Z</time></trkpt><trkpt lat="43.7747483" lon="11.2583567"><ele>60.66666666666667</ele><time>2026-04-17T16:32:28.92Z</time></trkpt><trkpt lat="43.77478" lon="11.2584817"><ele>60.333333333333336</ele><time>2026-04-17T16:32:31.92Z</time></trkpt><trkpt lat="43.7748383" lon="11.258595"><ele>60.0</ele><time>2026-04-17T16:32:34.92Z</time></trkpt><trkpt lat="43.7749417" lon="11.258655"><ele>60.0</ele><time>2026-04-17T16:32:36.92Z</time></trkpt><trkpt lat="43.7750017" lon="11.2587033"><ele>60.0</ele><time>2026-04-17T16:32:38.921Z</time></trkpt><trkpt lat="43.7750767" lon="11.25878"><ele>60.0</ele><time>2026-04-17T16:32:41.92Z</time></trkpt><trkpt lat="43.775115" lon="11.25885"><ele>60.0</ele><time>2026-04-17T16:32:43.92Z</time></trkpt><trkpt lat="43.7751633" lon="11.2589067"><ele>60.0</ele><time>2026-04-17T16:32:45.92Z</time></trkpt><trkpt lat="43.7752183" lon="11.2589767"><ele>60.0</ele><time>2026-04-17T16:32:47.92Z</time></trkpt><trkpt lat="43.7752783" lon="11.2590517"><ele>60.0</ele><time>2026-04-17T16:32:49.92Z</time></trkpt><trkpt lat="43.775365" lon="11.2591033"><ele>60.0</ele><time>2026-04-17T16:32:52.92Z</time></trkpt><trkpt lat="43.7754233" lon="11.2591483"><ele>60.0</ele><time>2026-04-17T16:32:54.92Z</time></trkpt><trkpt lat="43.7754867" lon="11.2591867"><ele>60.0</ele><time>2026-04-17T16:32:56.921Z</time></trkpt><trkpt lat="43.7755517" lon="11.2591933"><ele>60.0</ele><time>2026-04-17T16:32:58.92Z</time></trkpt><trkpt lat="43.7756117" lon="11.2592633"><ele>60.0</ele><time>2026-04-17T16:33:01.921Z</time></trkpt><trkpt lat="43.77569" lon="11.2592967"><ele>60.0</ele><time>2026-04-17T16:33:04.92Z</time></trkpt><trkpt lat="43.7757283" lon="11.2594883"><ele>60.0</ele><time>2026-04-17T16:33:09.92Z</time></trkpt><trkpt lat="43.7757783" lon="11.259585"><ele>60.0</ele><time>2026-04-17T16:33:12.92Z</time></trkpt><trkpt lat="43.7757767" lon="11.2596733"><ele>60.0</ele><time>2026-04-17T16:33:14.92Z</time></trkpt><trkpt lat="43.7756467" lon="11.25977"><ele>60.0</ele><time>2026-04-17T16:33:15.921Z</time></trkpt><trkpt lat="43.7756233" lon="11.2598717"><ele>60.0</ele><time>2026-04-17T16:33:18.92Z</time></trkpt><trkpt lat="43.7755767" lon="11.2599533"><ele>60.0</ele><time>2026-04-17T16:33:21.92Z</time></trkpt><trkpt lat="43.77551" lon="11.2599783"><ele>60.166666666666664</ele><time>2026-04-17T16:33:23.92Z</time></trkpt><trkpt lat="43.77549" lon="11.2600783"><ele>60.33333333333333</ele><time>2026-04-17T16:33:26.92Z</time></trkpt><trkpt lat="43.7754267" lon="11.26019"><ele>60.5</ele><time>2026-04-17T16:33:30.921Z</time></trkpt><trkpt lat="43.77542" lon="11.2602833"><ele>60.666666666666664</ele><time>2026-04-17T16:33:32.921Z</time></trkpt><trkpt lat="43.7753333" lon="11.260405"><ele>60.83333333333333</ele><time>2026-04-17T16:33:36.92Z</time></trkpt><trkpt lat="43.7752733" lon="11.2604767"><ele>61.0</ele><time>2026-04-17T16:33:38.92Z</time></trkpt><trkpt lat="43.77521" lon="11.260545"><ele>59.83333333333333</ele><time>2026-04-17T16:33:40.92Z</time></trkpt><trkpt lat="43.7751633" lon="11.2606217"><ele>58.666666666666664</ele><time>2026-04-17T16:33:42.921Z</time></trkpt><trkpt lat="43.7751017" lon="11.260725"><ele>57.5</ele><time>2026-04-17T16:33:45.92Z</time></trkpt><trkpt lat="43.7750917" lon="11.260855"><ele>56.33333333333333</ele><time>2026-04-17T16:33:47.92Z</time></trkpt><trkpt lat="43.7750567" lon="11.2609583"><ele>55.166666666666664</ele><time>2026-04-17T16:33:49.92Z</time></trkpt><trkpt lat="43.775015" lon="11.261035"><ele>54.0</ele><time>2026-04-17T16:33:51.92Z</time></trkpt><trkpt lat="43.7749883" lon="11.261135"><ele>54.0</ele><time>2026-04-17T16:33:53.921Z</time></trkpt><trkpt lat="43.7749667" lon="11.2612183"><ele>54.0</ele><time>2026-04-17T16:33:55.921Z</time></trkpt><trkpt lat="43.7749667" lon="11.261325"><ele>54.0</ele><time>2026-04-17T16:33:57.921Z</time></trkpt><trkpt lat="43.77494" lon="11.26141"><ele>54.0</ele><time>2026-04-17T16:33:59.921Z</time></trkpt><trkpt lat="43.7749" lon="11.2615283"><ele>54.0</ele><time>2026-04-17T16:34:01.92Z</time></trkpt><trkpt lat="43.774865" lon="11.2616433"><ele>54.0</ele><time>2026-04-17T16:34:03.92Z</time></trkpt><trkpt lat="43.7747967" lon="11.26172"><ele>54.0</ele><time>2026-04-17T16:34:05.92Z</time></trkpt><trkpt lat="43.7747417" lon="11.2618"><ele>54.0</ele><time>2026-04-17T16:34:07.92Z</time></trkpt><trkpt lat="43.7747" lon="11.2619067"><ele>54.0</ele><time>2026-04-17T16:34:09.92Z</time></trkpt><trkpt lat="43.774635" lon="11.261985"><ele>54.0</ele><time>2026-04-17T16:34:11.921Z</time></trkpt><trkpt lat="43.7746117" lon="11.26207"><ele>54.0</ele><time>2026-04-17T16:34:13.92Z</time></trkpt><trkpt lat="43.7745733" lon="11.2621617"><ele>54.0</ele><time>2026-04-17T16:34:17.92Z</time></trkpt><trkpt lat="43.774555" lon="11.2622617"><ele>54.333333333333336</ele><time>2026-04-17T16:34:20.92Z</time></trkpt><trkpt lat="43.7745933" lon="11.2623583"><ele>54.66666666666667</ele><time>2026-04-17T16:34:24.92Z</time></trkpt><trkpt lat="43.77462" lon="11.2624683"><ele>55.0</ele><time>2026-04-17T16:34:29.92Z</time></trkpt><trkpt lat="43.7746817" lon="11.2624367"><ele>55.333333333333336</ele><time>2026-04-17T16:36:47.919Z</time></trkpt><trkpt lat="43.7746" lon="11.2624867"><ele>55.66666666666667</ele><time>2026-04-17T16:37:48.919Z</time></trkpt><trkpt lat="43.7746967" lon="11.2624067"><ele>56.0</ele><time>2026-04-17T16:37:57.92Z</time></trkpt><trkpt lat="43.7746633" lon="11.2624817"><ele>56.00000000000001</ele><time>2026-04-17T16:39:07.918Z</time></trkpt><trkpt lat="43.774685" lon="11.2623883"><ele>56.0</ele><time>2026-04-17T16:40:38.918Z</time></trkpt><trkpt lat="43.774615" lon="11.2624933"><ele>56.0</ele><time>2026-04-17T16:40:53.918Z</time></trkpt><trkpt lat="43.7745783" lon="11.2624217"><ele>56.0</ele><time>2026-04-17T16:41:32.917Z</time></trkpt><trkpt lat="43.7745" lon="11.2624883"><ele>56.00000000000001</ele><time>2026-04-17T16:41:34.917Z</time></trkpt><trkpt lat="43.7744497" lon="11.2625533"><ele>56.0</ele><time>2026-04-17T16:41:48.917Z</time></trkpt><trkpt lat="43.7744033" lon="11.2626134"><ele>56.14285714285714</ele><time>2026-04-17T16:41:54.917Z</time></trkpt><trkpt lat="43.7743363" lon="11.2626452"><ele>56.285714285714285</ele><time>2026-04-17T16:42:06.917Z</time></trkpt><trkpt lat="43.7742697" lon="11.2626195"><ele>56.42857142857143</ele><time>2026-04-17T16:42:09.917Z</time></trkpt><trkpt lat="43.7742046" lon="11.2625632"><ele>56.57142857142857</ele><time>2026-04-17T16:42:10.917Z</time></trkpt><trkpt lat="43.7741388" lon="11.2625414"><ele>56.71428571428571</ele><time>2026-04-17T16:42:13.917Z</time></trkpt><trkpt lat="43.7741246" lon="11.2626301"><ele>56.857142857142854</ele><time>2026-04-17T16:42:18.918Z</time></trkpt><trkpt lat="43.7741311" lon="11.262728"><ele>57.0</ele><time>2026-04-17T16:42:22.917Z</time></trkpt><trkpt lat="43.7741339" lon="11.2628177"><ele>57.0</ele><time>2026-04-17T16:42:25.918Z</time></trkpt><trkpt lat="43.7741319" lon="11.26291"><ele>57.0</ele><time>2026-04-17T16:42:29.917Z</time></trkpt><trkpt lat="43.7741806" lon="11.2628508"><ele>57.0</ele><time>2026-04-17T16:42:44.918Z</time></trkpt></trkseg></trk></gpx>